FR3232 / EI-DLH 7700 Squawk Report (16th of July, 2021)

Aircraft B738 Reg No. EI-DLH Age 15 years old
Model 737 Jet engines 2 First flight 21-02-06
Registered 06-03-06 Rollout 14-02-06 Delivered 06-03-06
Construction No. 33590 Line No. 1886 Series 8AS
ADSHEX 4CA2D4 Airline name Ryanair Owner N/A
Airfield based Dublin~Co Dublin~EI First tracked N/A

Flight history for EI-DLH

Route Flight No Date Playback
Kerry (KIR) - Manchester (MAN) FR7058 2021-08-01 09:57:00
Manchester (MAN) - Kerry (KIR) N/A 2021-08-01 08:40:00
Pisa (PSA) - Manchester (MAN) FR5625 2021-08-01 07:36:00
Manchester (MAN) - Pisa (PSA) FR5624 2021-07-31 20:35:00
Son Sant Joan (PMI) - Manchester (MAN) FR9037 2021-07-31 17:25:00
Manchester (MAN) - Son Sant Joan (PMI) FR9036 2021-07-31 12:45:00
Alicante (ALC) - Manchester (MAN) FR9095 2021-07-30 20:24:00
Manchester (MAN) - Alicante (ALC) FR9094 2021-07-30 17:10:00
Casale (BDS) - Manchester (MAN) FR8895 2021-07-30 14:32:00
Manchester (MAN) - Casale (BDS) FR8894 2021-07-30 09:22:00
Rhodes Diagoras (RHO) - Manchester (MAN) FR9077 2021-07-30 06:35:00
Manchester (MAN) - Rhodes Diagoras (RHO) FR9076 2021-07-29 16:59:00
Barajas (MAD) - Manchester (MAN) FR3186 2021-07-29 12:57:00
Manchester (MAN) - Barajas (MAD) FR3187 2021-07-29 09:31:00
Villafranca (VRN) - Manchester (MAN) FR7529 2021-07-29 06:03:00
Manchester (MAN) - Villafranca (VRN) FR7528 2021-07-28 19:27:00
Nantes Atlantique (NTE) - Manchester (MAN) FR3544 2021-07-28 16:27:00
Manchester (MAN) - Nantes Atlantique (NTE) N/A 2021-07-28 14:04:00
Alicante (ALC) - Manchester (MAN) FR4006 2021-07-28 12:45:00
Manchester (MAN) - Alicante (ALC) FR4007 2021-07-28 08:51:00
Time Lat Lon Altitude Heading Speed Vertical Rate
2021-07-16 17:13:07 GMT 47.121231 -1.635040 275 27 140 -640
2021-07-16 17:13:03 GMT 47.119057 -1.636681 325 27 141 -704
2021-07-16 17:12:48 GMT 47.109467 -1.644005 525 27 152 -768
2021-07-16 17:12:15 GMT 47.088959 -1.659691 975 27 167 -896
2021-07-16 17:12:12 GMT 47.086937 -1.661189 1,000 26 168 -768
2021-07-16 17:12:03 GMT 47.079815 -1.666541 1,150 27 169 -896
2021-07-16 17:11:47 GMT 47.069138 -1.674660 1,375 27 170 -832
2021-07-16 17:11:41 GMT 47.065018 -1.677818 1,475 27 174 -896
2021-07-16 17:11:31 GMT 47.057842 -1.683232 1,625 26 177 -896
2021-07-16 17:11:22 GMT 47.050625 -1.688655 1,775 27 181 -1024
2021-07-16 17:11:11 GMT 47.043037 -1.694359 1,950 27 185 -1024
2021-07-16 17:11:01 GMT 47.035217 -1.700340 2,125 27 190 -960
2021-07-16 17:10:50 GMT 47.026886 -1.706657 2,300 27 192 -1024
2021-07-16 17:10:40 GMT 47.018784 -1.712811 2,475 27 195 -1024
2021-07-16 17:10:31 GMT 47.010639 -1.719008 2,650 27 198 -1152
2021-07-16 17:10:20 GMT 47.002445 -1.725206 2,850 27 200 -1216
2021-07-16 17:10:10 GMT 46.993698 -1.731789 3,050 27 202 -1152
2021-07-16 17:10:00 GMT 46.985275 -1.738037 3,250 26 205 -1024
2021-07-16 17:09:49 GMT 46.976608 -1.744361 3,400 26 209 -960
2021-07-16 17:09:40 GMT 46.967812 -1.750911 3,550 27 213 -896
2021-07-16 17:09:29 GMT 46.958725 -1.758156 3,750 30 213 -1408
2021-07-16 17:09:18 GMT 46.949799 -1.765984 4,025 30 210 -1472
2021-07-16 17:09:08 GMT 46.941227 -1.773799 4,250 34 205 -1152
2021-07-16 17:08:57 GMT 46.933685 -1.783518 4,425 55 204 -960
2021-07-16 17:08:47 GMT 46.928513 -1.795647 4,575 59 204 -576
2021-07-16 17:08:38 GMT 46.924164 -1.806358 4,650 59 206 -640
2021-07-16 17:08:35 GMT 46.922974 -1.809311 4,675 59 207 -576
2021-07-16 17:08:28 GMT 46.919403 -1.818169 4,750 59 205 -448
2021-07-16 17:08:25 GMT 46.918167 -1.821259 4,750 59 205 -384
2021-07-16 17:08:18 GMT 46.914742 -1.829857 4,850 60 204 -768
2021-07-16 17:08:15 GMT 46.913177 -1.833755 4,850 59 204 -704
2021-07-16 17:08:08 GMT 46.909527 -1.843027 4,925 59 208 -512
2021-07-16 17:08:04 GMT 46.908188 -1.846321 4,950 59 209 -576
2021-07-16 17:07:58 GMT 46.905056 -1.854084 5,025 59 212 -448
2021-07-16 17:07:53 GMT 46.902786 -1.859711 5,050 59 215 -320
2021-07-16 17:07:47 GMT 46.899380 -1.868028 5,175 59 222 -448
2021-07-16 17:07:43 GMT 46.897614 -1.872551 5,125 59 222 -512
2021-07-16 17:07:36 GMT 46.893932 -1.881690 5,175 59 225 -384
2021-07-16 17:07:32 GMT 46.891617 -1.887520 5,200 59 227 -448
2021-07-16 17:07:27 GMT 46.888763 -1.894508 5,275 59 230 -704
2021-07-16 17:07:22 GMT 46.886341 -1.900494 5,325 59 232 -640
2021-07-16 17:07:17 GMT 46.883179 -1.908452 5,375 59 234 -832
2021-07-16 17:07:12 GMT 46.880665 -1.914649 5,450 59 236 -960
2021-07-16 17:07:05 GMT 46.876602 -1.924736 5,575 59 237 -1280
2021-07-16 17:07:01 GMT 46.874634 -1.929680 5,650 59 237 -1344
2021-07-16 17:06:57 GMT 46.872471 -1.935143 5,725 59 237 -960
2021-07-16 17:06:51 GMT 46.868958 -1.943962 5,825 60 238 -704
2021-07-16 17:06:44 GMT 46.865349 -1.953094 5,900 59 241 -640
2021-07-16 17:06:40 GMT 46.863113 -1.958794 5,925 59 244 -640
2021-07-16 17:06:37 GMT 46.861111 -1.963737 5,975 59 245 -640
2021-07-16 17:06:29 GMT 46.856922 -1.974106 6,050 59 250 -768
2021-07-16 17:06:25 GMT 46.853577 -1.982429 6,125 59 253 -640
2021-07-16 17:06:16 GMT 46.848915 -1.993950 6,200 59 257 -704
2021-07-16 17:06:05 GMT 46.841980 -2.010979 6,325 59 264 -768
2021-07-16 17:05:56 GMT 46.836502 -2.024499 6,425 59 269 -640
2021-07-16 17:05:45 GMT 46.829544 -2.041514 6,550 59 276 -640
2021-07-16 17:05:35 GMT 46.823174 -2.057259 6,625 59 284 -512
2021-07-16 17:05:29 GMT 46.818935 -2.067764 6,675 59 289 -320
2021-07-16 17:05:26 GMT 46.815857 -2.075344 6,700 59 293 -704
2021-07-16 17:05:21 GMT 46.812279 -2.084175 6,800 59 357 -3136
2021-07-16 17:05:15 GMT 46.809158 -2.092003 6,875 59 303 -1024
2021-07-16 17:05:05 GMT 46.801575 -2.110648 7,075 59 315 -1536
2021-07-16 17:04:55 GMT 46.794022 -2.129137 7,350 59 323 -1664
2021-07-16 17:04:45 GMT 46.786011 -2.148899 7,675 59 332 -1920
2021-07-16 17:04:34 GMT 46.777969 -2.168701 8,000 59 340 -1920
2021-07-16 17:04:23 GMT 46.769440 -2.189763 8,350 59 348 -2368
2021-07-16 17:04:12 GMT 46.760094 -2.212784 8,850 59 355 -2624
2021-07-16 17:04:02 GMT 46.751434 -2.234138 9,375 59 358 -3328
2021-07-16 17:03:51 GMT 46.742638 -2.255699 9,825 59 362 -3200
2021-07-16 17:03:41 GMT 46.733688 -2.277653 10,475 59 367 -2816
2021-07-16 17:03:30 GMT 46.724342 -2.300537 10,975 59 374 -3264
2021-07-16 17:03:20 GMT 46.715309 -2.322784 11,600 59 375 -3776
2021-07-16 17:03:09 GMT 46.705994 -2.345782 12,200 59 378 -3136
2021-07-16 17:02:59 GMT 46.696503 -2.368858 12,825 59 381 -3904
2021-07-16 17:02:48 GMT 46.686867 -2.392548 13,500 59 381 -3904
2021-07-16 17:02:42 GMT 46.679977 -2.409508 14,000 59 382 -3968
2021-07-16 17:02:38 GMT 46.677277 -2.416168 14,200 59 385 -3328
2021-07-16 17:02:27 GMT 46.667725 -2.439300 14,750 59 388 -3648
2021-07-16 17:02:16 GMT 46.657352 -2.464577 15,800 58 391 -3200
2021-07-16 17:02:08 GMT 46.650192 -2.481905 15,800 59 396 -3200
2021-07-16 17:02:06 GMT 46.648361 -2.486394 15,900 59 396 -3264
2021-07-16 17:02:03 GMT 46.644104 -2.496710 16,150 58 417 -3456
2021-07-16 17:01:56 GMT 46.638359 -2.510582 16,500 59 401 -3200
2021-07-16 17:01:45 GMT 46.627853 -2.536033 17,100 59 406 -3328
2021-07-16 17:01:34 GMT 46.617783 -2.560417 17,675 59 411 -3264
2021-07-16 17:01:24 GMT 46.607300 -2.585673 18,275 58 416 -3520
2021-07-16 17:01:17 GMT 46.597504 -2.609119 18,625 58 420 -3392
2021-07-16 17:01:14 GMT 46.597504 -2.609119 18,825 58 420 -3392
2021-07-16 17:01:13 GMT 46.596405 -2.611665 18,900 58 420 -3392
2021-07-16 17:01:11 GMT 46.594208 -2.616957 19,025 58 420 -3520
2021-07-16 17:01:10 GMT 46.593155 -2.619435 19,075 58 422 -3712
2021-07-16 17:01:08 GMT 46.590912 -2.624795 19,225 58 423 -3712
2021-07-16 17:01:05 GMT 46.587059 -2.634109 19,450 58 423 -3584
2021-07-16 17:01:02 GMT 46.584732 -2.639740 19,600 58 425 -3520
2021-07-16 17:01:00 GMT 46.582684 -2.644547 19,700 58 426 -3392
2021-07-16 17:00:58 GMT 46.581161 -2.648241 19,800 58 426 -3392
2021-07-16 17:00:56 GMT 46.579098 -2.653198 19,900 58 427 -3392
2021-07-16 17:00:52 GMT 46.575577 -2.661572 20,100 58 429 -3584
2021-07-16 17:00:47 GMT 46.570068 -2.674828 20,425 58 430 -3840
2021-07-16 17:00:46 GMT 46.569042 -2.677299 20,500 58 430 -3904
2021-07-16 17:00:45 GMT 46.566467 -2.683545 20,650 59 431 -3904
2021-07-16 17:00:41 GMT 46.563969 -2.689590 20,775 59 431 -3840
2021-07-16 17:00:40 GMT 46.562851 -2.692253 20,875 59 432 -3648
2021-07-16 17:00:38 GMT 46.558102 -2.703804 21,075 59 433 -3328
2021-07-16 17:00:36 GMT 46.558102 -2.703804 21,150 59 435 -3200
2021-07-16 17:00:32 GMT 46.554424 -2.712662 21,325 59 437 -3200
2021-07-16 17:00:30 GMT 46.552891 -2.716370 21,400 58 437 -3264
2021-07-16 17:00:28 GMT 46.550262 -2.722734 21,550 58 438 -3648
2021-07-16 17:00:27 GMT 46.548096 -2.727905 21,675 58 442 -2816
2021-07-16 17:00:19 GMT 46.540741 -2.745644 21,975 59 443 -2688
2021-07-16 17:00:16 GMT 46.537308 -2.753951 22,175 58 444 -2688
2021-07-16 17:00:15 GMT 46.536366 -2.756126 22,225 58 444 -2688
2021-07-16 17:00:12 GMT 46.533188 -2.763798 22,350 59 446 -2688
2021-07-16 17:00:10 GMT 46.530899 -2.769359 22,450 59 446 -2688
2021-07-16 17:00:09 GMT 46.529846 -2.771919 22,500 59 447 -2688
2021-07-16 17:00:08 GMT 46.528774 -2.774529 22,550 59 447 -2688
2021-07-16 17:00:07 GMT 46.527695 -2.777129 22,600 59 447 -2688
2021-07-16 17:00:01 GMT 46.521839 -2.791351 22,825 59 448 -2688
2021-07-16 16:59:59 GMT 46.519638 -2.796690 22,875 59 449 -2624
2021-07-16 16:59:51 GMT 46.511307 -2.816787 23,250 59 456 -2496
2021-07-16 16:59:48 GMT 46.505127 -2.831860 23,500 59 456 -2496
2021-07-16 16:59:44 GMT 46.503544 -2.835709 23,550 59 457 -2304
2021-07-16 16:59:42 GMT 46.500893 -2.842300 23,650 59 459 -2112
2021-07-16 16:59:37 GMT 46.495651 -2.855106 23,825 59 461 -2048
2021-07-16 16:59:34 GMT 46.493397 -2.860565 23,900 59 462 -2176
2021-07-16 16:59:33 GMT 46.492325 -2.863174 23,925 59 462 -2304
2021-07-16 16:59:32 GMT 46.490696 -2.867226 24,200 59 464 -2880
2021-07-16 16:59:28 GMT 46.485764 -2.879155 24,200 59 464 -3008
2021-07-16 16:59:26 GMT 46.483479 -2.884666 24,300 59 464 -3264
2021-07-16 16:59:23 GMT 46.478943 -2.895902 24,525 59 465 -3328
2021-07-16 16:59:20 GMT 46.477295 -2.899922 24,625 59 466 -3200
2021-07-16 16:59:18 GMT 46.475189 -2.905080 24,700 59 467 -2816
2021-07-16 16:59:16 GMT 46.473495 -2.909166 24,775 59 467 -2752
2021-07-16 16:59:15 GMT 46.471893 -2.913119 24,850 59 468 -2368
2021-07-16 16:59:14 GMT 46.466908 -2.925179 25,025 59 471 -2304
2021-07-16 16:59:11 GMT 46.466908 -2.925179 25,025 59 471 -2304
2021-07-16 16:59:09 GMT 46.464752 -2.930469 25,100 59 472 -2368
2021-07-16 16:59:08 GMT 46.461971 -2.937195 25,200 59 472 -2496
2021-07-16 16:59:05 GMT 46.460861 -2.939848 25,250 59 472 -2560
2021-07-16 16:59:04 GMT 46.459213 -2.943867 25,325 59 474 -2944
2021-07-16 16:59:03 GMT 46.458111 -2.946602 25,375 59 474 -3072
2021-07-16 16:59:02 GMT 46.454636 -2.954920 25,500 59 474 -3584
2021-07-16 16:59:00 GMT 46.454636 -2.954920 25,550 59 473 -3840
2021-07-16 16:58:57 GMT 46.451591 -2.962326 25,725 59 473 -4032
2021-07-16 16:58:52 GMT 46.446938 -2.973656 26,000 58 472 -4032
2021-07-16 16:58:47 GMT 46.440048 -2.989655 26,400 57 471 -3968
2021-07-16 16:58:46 GMT 46.437767 -2.994736 26,525 55 470 -4032
2021-07-16 16:58:43 GMT 46.435204 -3.000229 26,675 55 470 -3968
2021-07-16 16:58:41 GMT 46.433487 -3.003957 26,750 54 469 -3968
2021-07-16 16:58:39 GMT 46.430786 -3.009383 26,900 53 469 -3968
2021-07-16 16:58:38 GMT 46.429550 -3.011862 27,025 52 468 -3840
2021-07-16 16:58:35 GMT 46.425888 -3.018963 27,850 52 468 -3840
2021-07-16 16:58:30 GMT 46.419052 -3.031815 27,850 52 466 -3840
2021-07-16 16:58:25 GMT 46.412022 -3.045067 27,850 52 466 -3840
2021-07-16 16:58:20 GMT 46.405739 -3.056877 28,375 52 465 -4160
2021-07-16 16:58:14 GMT 46.398384 -3.070816 28,525 52 464 -4352
2021-07-16 16:58:06 GMT 46.388046 -3.090248 29,100 52 464 -4352
2021-07-16 16:58:02 GMT 46.383018 -3.099724 29,375 52 464 -4352
2021-07-16 16:57:59 GMT 46.378281 -3.108729 29,650 52 464 -4160
2021-07-16 16:57:55 GMT 46.372967 -3.118675 29,925 52 465 -4032
2021-07-16 16:57:53 GMT 46.371056 -3.122314 30,025 52 465 -4160
2021-07-16 16:57:51 GMT 46.367889 -3.128288 30,175 52 465 -4160
2021-07-16 16:57:49 GMT 46.365372 -3.133113 30,325 52 465 -4160
2021-07-16 16:57:46 GMT 46.361298 -3.140750 30,525 52 465 -3968
2021-07-16 16:57:43 GMT 46.357086 -3.148722 30,725 52 465 -3904
2021-07-16 16:57:41 GMT 46.354568 -3.153411 30,900 52 465 -4160
2021-07-16 16:57:39 GMT 46.351318 -3.159599 31,025 52 465 -4288
2021-07-16 16:57:36 GMT 46.348015 -3.165848 31,225 52 466 -3840
2021-07-16 16:57:34 GMT 46.345184 -3.171163 31,375 52 466 -3840
2021-07-16 16:57:32 GMT 46.343124 -3.175049 31,450 52 466 -3264
2021-07-16 16:57:29 GMT 46.338730 -3.183356 31,550 52 467 -3264
2021-07-16 16:57:26 GMT 46.334885 -3.190523 31,875 52 466 -3456
2021-07-16 16:57:22 GMT 46.325638 -3.207740 32,175 52 464 -3712
2021-07-16 16:57:19 GMT 46.321804 -3.214943 32,300 52 464 -3712
2021-07-16 16:57:16 GMT 46.321804 -3.214943 33,025 52 463 -3584
2021-07-16 16:57:10 GMT 46.311722 -3.233665 33,025 52 459 -3648
2021-07-16 16:57:06 GMT 46.308445 -3.239799 33,025 52 459 -3648
2021-07-16 16:57:02 GMT 46.303185 -3.249481 33,375 52 458 -3904
2021-07-16 16:56:58 GMT 46.298401 -3.258384 33,525 52 456 -3776
2021-07-16 16:56:54 GMT 46.292908 -3.268567 33,775 51 455 -3648
2021-07-16 16:56:51 GMT 46.289886 -3.274060 34,050 52 453 -3776
2021-07-16 16:56:48 GMT 46.284897 -3.283371 34,100 52 453 -3840
2021-07-16 16:56:45 GMT 46.281677 -3.289307 34,425 52 450 -3904
2021-07-16 16:56:40 GMT 46.274323 -3.302865 34,700 51 449 -3840
2021-07-16 16:56:39 GMT 46.273018 -3.305305 34,750 51 448 -3840
2021-07-16 16:56:38 GMT 46.270596 -3.309769 34,875 51 447 -3840
2021-07-16 16:56:36 GMT 46.269333 -3.312043 34,925 51 447 -3904
2021-07-16 16:56:34 GMT 46.266548 -3.317253 35,075 51 446 -3840
2021-07-16 16:56:32 GMT 46.264915 -3.320206 35,150 51 445 -3776
2021-07-16 16:56:28 GMT 46.260448 -3.328445 35,525 51 444 -2496
2021-07-16 16:56:25 GMT 46.256561 -3.335489 35,500 51 444 -2816
2021-07-16 16:56:21 GMT 46.246994 -3.352907 35,725 51 446 -1344
2021-07-16 16:56:18 GMT 46.246994 -3.352907 35,950 61 447 -832
2021-07-16 16:56:15 GMT 46.243469 -3.359204 35,800 51 446 -1024
2021-07-16 16:56:09 GMT 46.236473 -3.371910 35,900 52 446 -960
2021-07-16 16:56:05 GMT 46.230888 -3.383171 35,975 57 446 -832
2021-07-16 16:55:59 GMT 46.224369 -3.399307 36,075 62 446 -832
2021-07-16 16:55:55 GMT 46.220970 -3.409882 36,125 67 446 -832
2021-07-16 16:55:52 GMT 46.218876 -3.417366 36,150 70 446 -896
2021-07-16 16:55:50 GMT 46.217758 -3.421829 36,175 71 445 -896
2021-07-16 16:55:45 GMT 46.214733 -3.436935 36,250 77 446 -832
2021-07-16 16:55:41 GMT 46.212158 -3.459019 36,350 84 445 -896
2021-07-16 16:55:38 GMT 46.212158 -3.459019 36,475 121 446 -896
2021-07-16 16:55:35 GMT 46.211800 -3.466187 36,400 87 445 -960
2021-07-16 16:55:30 GMT 46.212269 -3.491043 36,550 107 445 -960
2021-07-16 16:55:28 GMT 46.212269 -3.491043 36,550 107 445 -960
2021-07-16 16:55:25 GMT 46.212616 -3.495260 36,550 98 444 -960
2021-07-16 16:55:20 GMT 46.215179 -3.513213 36,650 106 445 -960
2021-07-16 16:55:17 GMT 46.216736 -3.520649 36,700 115 446 -896
2021-07-16 16:55:14 GMT 46.218155 -3.526209 36,725 114 445 -896
2021-07-16 16:55:09 GMT 46.222321 -3.539040 36,800 119 446 -832
2021-07-16 16:55:04 GMT 46.227814 -3.552361 36,875 123 446 -1024
2021-07-16 16:55:00 GMT 46.232750 -3.562935 36,950 124 446 -832
2021-07-16 16:54:58 GMT 46.240723 -3.579868 37,000 123 447 0
2021-07-16 16:54:53 GMT 46.240723 -3.579868 37,000 124 447 -64
2021-07-16 16:54:47 GMT 46.247879 -3.595070 37,000 124 447 0
2021-07-16 16:54:43 GMT 46.252762 -3.605525 37,000 124 446 0
2021-07-16 16:54:38 GMT 46.258713 -3.618253 37,000 123 446 0
2021-07-16 16:54:29 GMT 46.268692 -3.639690 37,000 123 447 0
2021-07-16 16:54:26 GMT 46.272217 -3.647327 37,000 123 447 0
2021-07-16 16:54:22 GMT 46.276794 -3.657375 37,000 123 446 64
2021-07-16 16:54:17 GMT 46.282982 -3.670944 37,000 122 446 64
2021-07-16 16:54:12 GMT 46.288567 -3.683372 37,000 122 447 0
2021-07-16 16:54:08 GMT 46.293499 -3.694565 37,000 124 446 -64
2021-07-16 16:54:01 GMT 46.300529 -3.709740 37,000 129 446 0
2021-07-16 16:53:57 GMT 46.305603 -3.719078 37,000 130 446 0
2021-07-16 16:53:50 GMT 46.315109 -3.733677 37,000 138 446 0
2021-07-16 16:53:47 GMT 46.320511 -3.740510 37,000 142 446 0
2021-07-16 16:53:38 GMT 46.334656 -3.754980 37,000 149 446 0
2021-07-16 16:53:35 GMT 46.351959 -3.766837 37,000 155 445 0
2021-07-16 16:53:30 GMT 46.351959 -3.766837 37,000 160 446 -64
2021-07-16 16:53:26 GMT 46.378784 -3.774541 37,025 165 445 -128
2021-07-16 16:53:17 GMT 46.378784 -3.774541 37,000 179 446 128
2021-07-16 16:53:10 GMT 46.390560 -3.774628 37,000 182 446 0
2021-07-16 16:53:06 GMT 46.398987 -3.774078 37,000 185 447 0
2021-07-16 16:53:03 GMT 46.404694 -3.773536 37,000 184 446 0
2021-07-16 16:52:56 GMT 46.425293 -3.771392 37,000 185 446 0
2021-07-16 16:52:53 GMT 46.425293 -3.771392 37,000 185 446 0
2021-07-16 16:52:46 GMT 46.440536 -3.769784 37,000 185 446 0
2021-07-16 16:52:43 GMT 46.445541 -3.769203 37,000 185 446 0
2021-07-16 16:52:36 GMT 46.461136 -3.767574 37,000 185 446 0
2021-07-16 16:52:33 GMT 46.465744 -3.767075 37,000 185 446 0
2021-07-16 16:52:26 GMT 46.482689 -3.765289 37,000 185 446 0
2021-07-16 16:52:23 GMT 46.486412 -3.764877 37,000 185 446 0
2021-07-16 16:52:18 GMT 46.496609 -3.763779 37,000 185 446 0
2021-07-16 16:52:13 GMT 46.508057 -3.762549 37,000 185 446 0
2021-07-16 16:52:08 GMT 46.517838 -3.761513 37,000 185 447 0
2021-07-16 16:52:03 GMT 46.528404 -3.760345 37,000 185 447 0
2021-07-16 16:51:59 GMT 46.538319 -3.759247 37,000 185 447 0
2021-07-16 16:51:55 GMT 46.545227 -3.758530 37,000 185 447 0
2021-07-16 16:51:52 GMT 46.550720 -3.757927 37,000 185 447 0
2021-07-16 16:51:48 GMT 46.559917 -3.756981 37,000 185 447 0
2021-07-16 16:51:42 GMT 46.571136 -3.755716 37,000 185 447 0
2021-07-16 16:51:38 GMT 46.580357 -3.754784 37,000 185 447 -64
2021-07-16 16:51:33 GMT 46.590042 -3.753774 37,000 185 447 0
2021-07-16 16:51:27 GMT 46.601814 -3.752518 37,000 185 447 0
2021-07-16 16:51:23 GMT 46.611008 -3.751563 37,000 185 447 0
2021-07-16 16:51:18 GMT 46.621647 -3.750458 37,000 185 447 0
2021-07-16 16:51:12 GMT 46.633797 -3.749153 37,000 185 447 0
2021-07-16 16:51:08 GMT 46.642502 -3.748214 37,000 185 447 0
2021-07-16 16:51:04 GMT 46.651955 -3.747231 37,000 185 447 0
2021-07-16 16:51:01 GMT 46.655582 -3.746819 37,000 185 447 0
2021-07-16 16:50:57 GMT 46.663651 -3.745936 37,000 185 447 0
2021-07-16 16:50:50 GMT 46.677750 -3.744462 37,000 185 447 0
2021-07-16 16:50:47 GMT 46.687958 -3.743323 37,000 185 448 0
2021-07-16 16:50:42 GMT 46.694408 -3.742630 37,000 185 448 0
2021-07-16 16:50:39 GMT 46.701485 -3.741875 37,000 185 448 0
2021-07-16 16:50:36 GMT 46.706955 -3.741247 37,000 185 448 0
2021-07-16 16:50:31 GMT 46.727509 -3.738991 37,000 185 448 0
2021-07-16 16:50:26 GMT 46.727509 -3.738991 37,000 185 448 0
2021-07-16 16:50:21 GMT 46.737900 -3.737897 37,000 185 448 0
2021-07-16 16:50:16 GMT 46.748081 -3.736794 37,000 185 448 0
2021-07-16 16:50:12 GMT 46.758041 -3.735687 37,000 185 448 0
2021-07-16 16:50:09 GMT 46.763214 -3.735146 37,000 185 448 0
2021-07-16 16:50:07 GMT 46.768425 -3.734596 37,000 185 448 0
2021-07-16 16:50:00 GMT 46.781616 -3.733141 37,000 185 448 0
2021-07-16 16:49:56 GMT 46.789169 -3.732337 37,000 185 448 0
2021-07-16 16:49:52 GMT 46.800083 -3.731163 37,000 185 448 0
2021-07-16 16:49:45 GMT 46.813629 -3.729652 37,000 185 448 0
2021-07-16 16:49:41 GMT 46.821030 -3.728828 37,000 185 448 0
2021-07-16 16:49:35 GMT 46.834576 -3.727318 37,000 185 448 0
2021-07-16 16:49:30 GMT 46.843277 -3.726375 37,000 185 448 0
2021-07-16 16:49:24 GMT 46.856270 -3.724915 37,000 185 448 0
2021-07-16 16:49:20 GMT 46.863720 -3.724159 37,000 185 448 0
2021-07-16 16:49:17 GMT 46.871960 -3.723238 37,000 185 449 0
2021-07-16 16:49:12 GMT 46.886391 -3.721689 37,000 185 448 -64
2021-07-16 16:49:04 GMT 46.898117 -3.720383 37,000 185 448 0
2021-07-16 16:49:01 GMT 46.906448 -3.719490 37,000 185 449 0
2021-07-16 16:48:54 GMT 46.918884 -3.718097 37,000 185 449 0
2021-07-16 16:48:50 GMT 46.926682 -3.717224 37,000 185 449 0
2021-07-16 16:48:44 GMT 46.939133 -3.715844 37,000 185 449 0
2021-07-16 16:48:40 GMT 46.947647 -3.714890 37,000 185 449 0
2021-07-16 16:48:34 GMT 46.968750 -3.712624 37,000 185 449 0
2021-07-16 16:48:30 GMT 46.980377 -3.711407 37,000 185 449 0
2021-07-16 16:48:24 GMT 46.980377 -3.711407 37,000 185 449 0
2021-07-16 16:48:20 GMT 46.989082 -3.710491 37,000 185 450 0
2021-07-16 16:48:14 GMT 47.001434 -3.709122 37,000 185 450 0
2021-07-16 16:48:10 GMT 47.009766 -3.708298 37,000 185 450 0
2021-07-16 16:48:07 GMT 47.016083 -3.707604 37,000 185 450 0
2021-07-16 16:48:04 GMT 47.021713 -3.706993 37,000 185 450 0
2021-07-16 16:48:00 GMT 47.031448 -3.705914 37,000 185 450 0
2021-07-16 16:47:55 GMT 47.039841 -3.705002 37,000 185 450 64
2021-07-16 16:47:51 GMT 47.048813 -3.703942 37,000 185 451 0
2021-07-16 16:47:47 GMT 47.059193 -3.702815 37,000 185 451 0
2021-07-16 16:47:44 GMT 47.064102 -3.702255 37,000 185 450 0
2021-07-16 16:47:39 GMT 47.074089 -3.701125 37,000 185 451 0
2021-07-16 16:47:33 GMT 47.086796 -3.699716 37,000 185 451 0
2021-07-16 16:47:28 GMT 47.095409 -3.698801 37,000 185 451 0
2021-07-16 16:47:24 GMT 47.105759 -3.697655 37,000 185 451 0
2021-07-16 16:47:19 GMT 47.116837 -3.696487 37,000 185 451 0
2021-07-16 16:47:13 GMT 47.127869 -3.695251 37,000 185 452 0
2021-07-16 16:47:10 GMT 47.134323 -3.694565 37,000 185 451 0
2021-07-16 16:47:07 GMT 47.138992 -3.694016 37,000 185 452 0
2021-07-16 16:47:03 GMT 47.154419 -3.692368 37,000 185 452 0
2021-07-16 16:47:00 GMT 47.154419 -3.692368 37,000 185 452 0
2021-07-16 16:46:56 GMT 47.162750 -3.691406 37,000 185 452 0
2021-07-16 16:46:53 GMT 47.169205 -3.690720 37,000 185 452 0
2021-07-16 16:46:50 GMT 47.175522 -3.690033 37,000 185 452 0
2021-07-16 16:46:47 GMT 47.181473 -3.689346 37,000 185 452 0
2021-07-16 16:46:43 GMT 47.190517 -3.688378 37,000 185 452 0
2021-07-16 16:46:40 GMT 47.195683 -3.687815 37,000 185 452 0
2021-07-16 16:46:35 GMT 47.208572 -3.686394 37,000 185 452 0
2021-07-16 16:46:32 GMT 47.214584 -3.685702 37,000 185 452 0
2021-07-16 16:46:28 GMT 47.223103 -3.684786 37,000 185 452 0
2021-07-16 16:46:23 GMT 47.231873 -3.683784 37,000 185 452 0
2021-07-16 16:46:20 GMT 47.237907 -3.683167 37,000 185 452 0
2021-07-16 16:46:17 GMT 47.244934 -3.682392 37,000 185 452 0
2021-07-16 16:46:14 GMT 47.251266 -3.681688 37,000 185 452 0
2021-07-16 16:46:10 GMT 47.259460 -3.680772 37,000 185 452 0
2021-07-16 16:46:07 GMT 47.265602 -3.680068 37,000 185 452 0
2021-07-16 16:46:04 GMT 47.271889 -3.679434 37,000 185 452 0
2021-07-16 16:46:00 GMT 47.280037 -3.678518 37,000 185 452 0
2021-07-16 16:45:54 GMT 47.293255 -3.677040 37,000 185 452 0
2021-07-16 16:45:50 GMT 47.301170 -3.676194 37,000 185 453 0
2021-07-16 16:45:46 GMT 47.310062 -3.675208 37,000 185 452 0
2021-07-16 16:45:42 GMT 47.318848 -3.674240 37,000 185 452 0
2021-07-16 16:45:39 GMT 47.323189 -3.673730 37,000 185 452 0
2021-07-16 16:45:34 GMT 47.334824 -3.672455 37,000 185 453 0
2021-07-16 16:45:30 GMT 47.343674 -3.671476 37,000 185 453 0
2021-07-16 16:45:27 GMT 47.349838 -3.670807 37,000 185 453 0
2021-07-16 16:45:22 GMT 47.359127 -3.669715 37,000 185 453 0
2021-07-16 16:45:19 GMT 47.363876 -3.669222 37,000 185 453 0
2021-07-16 16:45:15 GMT 47.373421 -3.668166 37,000 185 453 0
2021-07-16 16:45:12 GMT 47.385635 -3.666756 37,000 185 453 0
2021-07-16 16:45:09 GMT 47.385635 -3.666756 37,000 185 453 0
2021-07-16 16:45:06 GMT 47.394230 -3.665771 37,000 185 453 0
2021-07-16 16:45:01 GMT 47.402748 -3.664856 37,000 185 453 0
2021-07-16 16:44:58 GMT 47.409622 -3.664078 37,000 185 453 0
2021-07-16 16:44:54 GMT 47.417133 -3.663236 37,000 185 453 0
2021-07-16 16:44:51 GMT 47.423584 -3.662498 37,000 185 453 0
2021-07-16 16:44:47 GMT 47.431980 -3.661546 37,000 185 453 0
2021-07-16 16:44:44 GMT 47.436218 -3.661057 37,000 185 453 0
2021-07-16 16:44:42 GMT 47.441666 -3.660490 37,000 185 453 0
2021-07-16 16:44:39 GMT 47.448463 -3.659715 37,000 185 453 0
2021-07-16 16:44:35 GMT 47.456955 -3.658722 37,000 185 453 0
2021-07-16 16:44:33 GMT 47.460892 -3.658310 37,000 185 453 0
2021-07-16 16:44:29 GMT 47.469086 -3.657349 37,000 185 453 0
2021-07-16 16:44:25 GMT 47.477051 -3.656456 37,000 185 453 0
2021-07-16 16:44:23 GMT 47.482224 -3.655838 37,000 185 453 0
2021-07-16 16:44:19 GMT 47.491058 -3.654856 37,000 185 453 0
2021-07-16 16:44:15 GMT 47.498199 -3.653984 37,000 185 453 0
2021-07-16 16:44:13 GMT 47.503998 -3.653377 37,000 185 453 0
2021-07-16 16:44:08 GMT 47.515961 -3.651924 37,000 185 453 -64
2021-07-16 16:44:05 GMT 47.519440 -3.651581 37,000 185 453 -64
2021-07-16 16:44:03 GMT 47.524475 -3.650963 37,000 185 453 -64
2021-07-16 16:44:00 GMT 47.530022 -3.650348 37,000 185 453 0
2021-07-16 16:43:57 GMT 47.536652 -3.649590 37,000 185 453 0
2021-07-16 16:43:54 GMT 47.549789 -3.648148 37,000 185 453 64
2021-07-16 16:43:50 GMT 47.549789 -3.648148 37,000 185 453 0
2021-07-16 16:43:47 GMT 47.567368 -3.646225 37,000 185 453 0
2021-07-16 16:43:43 GMT 47.567368 -3.646225 37,000 185 453 0
2021-07-16 16:43:40 GMT 47.571671 -3.645744 37,000 185 453 0
2021-07-16 16:43:38 GMT 47.574665 -3.645419 37,000 185 453 0
2021-07-16 16:43:35 GMT 47.582520 -3.644508 37,000 185 453 0
2021-07-16 16:43:32 GMT 47.587692 -3.643959 37,000 185 453 0
2021-07-16 16:43:29 GMT 47.595242 -3.643165 37,000 185 453 0
2021-07-16 16:43:25 GMT 47.602615 -3.642380 37,000 185 453 0
2021-07-16 16:43:22 GMT 47.609390 -3.641624 37,000 185 453 0
2021-07-16 16:43:19 GMT 47.615295 -3.641006 37,000 185 452 0
2021-07-16 16:43:16 GMT 47.621292 -3.640320 37,000 185 452 0
2021-07-16 16:43:11 GMT 47.631775 -3.639221 37,000 185 452 0
2021-07-16 16:43:08 GMT 47.637451 -3.638603 37,000 185 452 0
2021-07-16 16:43:05 GMT 47.651615 -3.636968 37,000 185 452 0
2021-07-16 16:43:02 GMT 47.651615 -3.636968 37,000 185 452 0
2021-07-16 16:42:58 GMT 47.658787 -3.636193 37,000 185 452 0
2021-07-16 16:42:55 GMT 47.666199 -3.635376 37,000 185 452 0
2021-07-16 16:42:52 GMT 47.672379 -3.634689 37,000 185 452 0
2021-07-16 16:42:48 GMT 47.679611 -3.633865 37,000 185 452 0
2021-07-16 16:42:44 GMT 47.690067 -3.632672 37,000 185 452 0
2021-07-16 16:42:42 GMT 47.693279 -3.632320 37,000 185 452 0
2021-07-16 16:42:38 GMT 47.700497 -3.631474 37,000 185 452 0
2021-07-16 16:42:35 GMT 47.706711 -3.630775 37,000 185 452 0
2021-07-16 16:42:32 GMT 47.712833 -3.630136 37,000 185 452 0
2021-07-16 16:42:29 GMT 47.720352 -3.629265 37,000 185 452 0
2021-07-16 16:42:27 GMT 47.722748 -3.629010 37,000 185 452 0
2021-07-16 16:42:23 GMT 47.731522 -3.628029 37,000 185 452 0
2021-07-16 16:42:21 GMT 47.737015 -3.627411 37,000 185 451 0
2021-07-16 16:42:18 GMT 47.743240 -3.626724 37,000 185 451 0
2021-07-16 16:42:15 GMT 47.755234 -3.625420 37,000 185 451 0
2021-07-16 16:42:12 GMT 47.755234 -3.625420 37,000 185 451 0
2021-07-16 16:42:10 GMT 47.758621 -3.625008 37,000 185 451 0
2021-07-16 16:42:06 GMT 47.778049 -3.622812 37,000 185 451 0
2021-07-16 16:42:01 GMT 47.778049 -3.622812 37,000 185 451 0
2021-07-16 16:41:58 GMT 47.785034 -3.622037 37,000 185 451 0
2021-07-16 16:41:55 GMT 47.790207 -3.621506 37,000 185 451 0
2021-07-16 16:41:51 GMT 47.799408 -3.620476 37,000 185 451 0
2021-07-16 16:41:48 GMT 47.806778 -3.619652 37,000 185 451 0
2021-07-16 16:41:44 GMT 47.812080 -3.619080 37,000 185 451 0
2021-07-16 16:41:41 GMT 47.821243 -3.618004 37,000 185 451 0
2021-07-16 16:41:36 GMT 47.829491 -3.617108 37,000 185 451 0
2021-07-16 16:41:33 GMT 47.840618 -3.615910 37,000 185 451 -64
2021-07-16 16:41:31 GMT 47.840618 -3.615910 37,000 185 451 0
2021-07-16 16:41:28 GMT 47.845871 -3.615326 37,000 185 451 0
2021-07-16 16:41:25 GMT 47.852768 -3.614502 37,000 185 451 0
2021-07-16 16:41:22 GMT 47.860123 -3.613727 37,000 185 451 0
2021-07-16 16:41:19 GMT 47.865990 -3.613093 37,000 185 451 0
2021-07-16 16:41:16 GMT 47.882767 -3.611206 37,000 185 451 0
2021-07-16 16:41:11 GMT 47.890846 -3.610276 37,000 185 451 0
2021-07-16 16:41:07 GMT 47.890846 -3.610276 37,000 185 451 0
2021-07-16 16:41:02 GMT 47.901443 -3.609077 37,000 185 451 0
2021-07-16 16:41:00 GMT 47.905655 -3.608597 37,000 185 451 0
2021-07-16 16:40:57 GMT 47.911938 -3.607882 37,000 185 451 0
2021-07-16 16:40:54 GMT 47.916451 -3.607389 37,000 185 451 0
2021-07-16 16:40:50 GMT 47.926971 -3.606262 37,000 185 451 0
2021-07-16 16:40:47 GMT 47.932159 -3.605644 37,000 185 451 0
2021-07-16 16:40:44 GMT 47.937744 -3.605026 37,000 185 451 0
2021-07-16 16:40:40 GMT 47.949142 -3.603722 37,000 185 451 0
2021-07-16 16:40:36 GMT 47.956116 -3.602952 37,000 185 451 0
2021-07-16 16:40:34 GMT 47.959141 -3.602600 37,000 185 451 0
2021-07-16 16:40:31 GMT 47.965004 -3.601966 37,000 185 451 0
2021-07-16 16:40:29 GMT 47.971252 -3.601250 37,000 185 451 0
2021-07-16 16:40:25 GMT 47.976597 -3.600628 37,000 185 451 0
2021-07-16 16:40:21 GMT 47.985535 -3.599602 37,000 185 451 0
2021-07-16 16:40:18 GMT 47.994053 -3.598656 37,000 185 451 0
2021-07-16 16:40:14 GMT 48.000595 -3.597885 37,000 185 451 0
2021-07-16 16:40:11 GMT 48.006180 -3.597267 37,000 185 451 0
2021-07-16 16:40:09 GMT 48.011372 -3.596684 37,000 185 451 0
2021-07-16 16:40:06 GMT 48.018585 -3.595825 37,000 185 451 0
2021-07-16 16:40:02 GMT 48.025848 -3.594994 37,000 185 451 0
2021-07-16 16:39:59 GMT 48.032085 -3.594290 37,000 185 451 0
2021-07-16 16:39:56 GMT 48.036228 -3.593797 37,000 185 451 0
2021-07-16 16:39:53 GMT 48.042793 -3.593022 37,000 185 451 0
2021-07-16 16:39:50 GMT 48.050941 -3.592107 37,000 185 451 0
2021-07-16 16:39:47 GMT 48.056389 -3.591473 37,000 185 451 0
2021-07-16 16:39:44 GMT 48.064774 -3.590469 37,000 185 451 0
2021-07-16 16:39:41 GMT 48.068893 -3.589989 37,000 185 451 0
2021-07-16 16:39:36 GMT 48.078175 -3.588938 37,000 185 451 0
2021-07-16 16:39:33 GMT 48.084736 -3.588163 37,000 185 451 0
2021-07-16 16:39:30 GMT 48.090683 -3.587448 37,000 185 451 0
2021-07-16 16:39:28 GMT 48.096542 -3.586761 37,000 185 451 0
2021-07-16 16:39:24 GMT 48.102798 -3.586050 37,000 185 451 0
2021-07-16 16:39:21 GMT 48.111191 -3.585114 37,000 185 451 0
2021-07-16 16:39:18 GMT 48.118023 -3.584290 37,000 185 451 0
2021-07-16 16:39:15 GMT 48.123375 -3.583656 37,000 185 451 0
2021-07-16 16:39:11 GMT 48.131836 -3.582710 37,000 185 451 0
2021-07-16 16:39:08 GMT 48.138657 -3.581886 37,000 185 451 0
2021-07-16 16:39:05 GMT 48.153214 -3.580238 37,000 185 451 0
2021-07-16 16:39:01 GMT 48.153214 -3.580238 37,000 185 451 0
2021-07-16 16:38:58 GMT 48.160339 -3.579430 37,000 185 451 0
2021-07-16 16:38:54 GMT 48.166203 -3.578796 37,000 185 451 0
2021-07-16 16:38:50 GMT 48.174351 -3.577857 37,000 185 451 0
2021-07-16 16:38:47 GMT 48.181046 -3.577106 37,000 185 451 0
2021-07-16 16:38:44 GMT 48.187317 -3.576402 37,000 185 451 0
2021-07-16 16:38:40 GMT 48.194824 -3.575557 37,000 185 451 0
2021-07-16 16:38:36 GMT 48.204300 -3.574500 37,000 185 451 0
2021-07-16 16:38:33 GMT 48.212894 -3.573520 37,000 185 451 0
2021-07-16 16:38:30 GMT 48.216339 -3.573092 37,000 185 451 0
2021-07-16 16:38:26 GMT 48.233288 -3.571207 37,000 185 452 0
2021-07-16 16:38:22 GMT 48.233288 -3.571207 37,000 185 452 0
2021-07-16 16:38:19 GMT 48.238220 -3.570701 37,000 185 452 0
2021-07-16 16:38:16 GMT 48.245773 -3.569782 37,000 185 452 0
2021-07-16 16:38:12 GMT 48.253769 -3.568894 37,000 185 452 0
2021-07-16 16:38:09 GMT 48.259171 -3.568316 37,000 185 452 0
2021-07-16 16:38:07 GMT 48.265079 -3.567593 37,000 185 452 0
2021-07-16 16:38:03 GMT 48.272530 -3.566798 37,000 185 452 0
2021-07-16 16:37:59 GMT 48.280258 -3.565859 37,000 185 452 0
2021-07-16 16:37:56 GMT 48.293198 -3.564430 37,000 185 452 0
2021-07-16 16:37:53 GMT 48.293198 -3.564430 37,000 185 452 0
2021-07-16 16:37:50 GMT 48.299789 -3.563655 37,000 185 452 0
2021-07-16 16:37:48 GMT 48.303360 -3.563232 37,000 185 452 0
2021-07-16 16:37:45 GMT 48.310051 -3.562461 37,000 185 452 0
2021-07-16 16:37:43 GMT 48.314346 -3.562035 37,000 185 452 0
2021-07-16 16:37:40 GMT 48.320892 -3.561261 37,000 185 452 0
2021-07-16 16:37:37 GMT 48.327648 -3.560510 37,000 185 452 0
2021-07-16 16:37:35 GMT 48.330276 -3.560204 37,000 185 452 0
2021-07-16 16:37:31 GMT 48.340302 -3.559077 37,000 185 452 0
2021-07-16 16:37:28 GMT 48.351013 -3.557810 37,000 185 452 0
2021-07-16 16:37:25 GMT 48.351013 -3.557810 37,000 185 452 0
2021-07-16 16:37:20 GMT 48.362747 -3.556462 37,000 185 452 0
2021-07-16 16:37:17 GMT 48.369324 -3.555697 37,000 185 452 0
2021-07-16 16:37:13 GMT 48.378571 -3.554641 37,000 185 452 0
2021-07-16 16:37:10 GMT 48.383743 -3.554077 37,000 185 452 0
2021-07-16 16:37:07 GMT 48.388863 -3.553499 37,000 185 452 0
2021-07-16 16:37:03 GMT 48.399033 -3.552317 37,000 185 452 0
2021-07-16 16:37:00 GMT 48.403610 -3.551753 37,000 185 452 0
2021-07-16 16:36:58 GMT 48.405388 -3.551547 37,000 185 452 0
2021-07-16 16:36:55 GMT 48.414322 -3.550556 37,000 185 452 0
2021-07-16 16:36:52 GMT 48.420914 -3.549781 37,000 185 452 0
2021-07-16 16:36:49 GMT 48.425903 -3.549218 37,000 185 452 0
2021-07-16 16:36:44 GMT 48.435787 -3.548078 37,000 185 452 0
2021-07-16 16:36:40 GMT 48.445129 -3.546964 37,000 185 452 0
2021-07-16 16:36:38 GMT 48.450638 -3.546271 37,000 185 452 0
2021-07-16 16:36:35 GMT 48.462799 -3.544851 37,000 185 452 0
2021-07-16 16:36:32 GMT 48.467834 -3.544218 37,000 185 452 0
2021-07-16 16:36:29 GMT 48.467834 -3.544218 37,000 185 452 0
2021-07-16 16:36:25 GMT 48.477081 -3.543161 37,000 185 452 0
2021-07-16 16:36:22 GMT 48.484131 -3.542316 37,000 185 452 0
2021-07-16 16:36:19 GMT 48.493195 -3.541260 37,000 185 452 0
2021-07-16 16:36:17 GMT 48.493195 -3.541260 37,000 185 452 0
2021-07-16 16:36:14 GMT 48.505142 -3.539922 37,000 185 452 0
2021-07-16 16:36:11 GMT 48.505142 -3.539922 37,000 185 452 0
2021-07-16 16:36:08 GMT 48.516495 -3.538584 37,000 185 452 0
2021-07-16 16:36:06 GMT 48.516495 -3.538584 37,000 185 452 0
2021-07-16 16:36:01 GMT 48.526237 -3.537453 37,000 185 452 0
2021-07-16 16:35:58 GMT 48.531418 -3.536823 37,000 185 452 0
2021-07-16 16:35:56 GMT 48.537872 -3.536119 37,000 185 452 0
2021-07-16 16:35:53 GMT 48.543465 -3.535429 37,000 185 452 0
2021-07-16 16:35:51 GMT 48.554855 -3.534147 37,000 185 452 0
2021-07-16 16:35:48 GMT 48.554855 -3.534147 37,000 185 452 0
2021-07-16 16:35:45 GMT 48.559113 -3.533654 37,000 185 452 0
2021-07-16 16:35:42 GMT 48.566528 -3.532809 37,000 185 452 0
2021-07-16 16:35:39 GMT 48.573303 -3.532032 37,000 185 452 0
2021-07-16 16:35:35 GMT 48.586899 -3.530414 37,000 185 452 0
2021-07-16 16:35:32 GMT 48.586899 -3.530414 37,000 185 452 0
2021-07-16 16:35:29 GMT 48.593693 -3.529647 37,000 185 452 0
2021-07-16 16:35:26 GMT 48.601791 -3.528707 37,000 185 452 0
2021-07-16 16:35:22 GMT 48.608356 -3.527985 37,000 185 452 -64
2021-07-16 16:35:19 GMT 48.617435 -3.526900 37,000 185 452 0
2021-07-16 16:35:14 GMT 48.624344 -3.526118 37,000 185 452 -64
2021-07-16 16:35:11 GMT 48.631439 -3.525273 37,000 185 452 0
2021-07-16 16:35:08 GMT 48.637173 -3.524588 37,000 185 452 0
2021-07-16 16:35:05 GMT 48.644157 -3.523792 37,000 185 452 0
2021-07-16 16:35:02 GMT 48.648438 -3.523287 37,000 185 452 0
2021-07-16 16:35:00 GMT 48.653732 -3.522668 37,000 185 452 0
2021-07-16 16:34:57 GMT 48.658958 -3.522058 37,000 185 452 0
2021-07-16 16:34:55 GMT 48.665756 -3.521263 37,000 185 452 0
2021-07-16 16:34:52 GMT 48.669617 -3.520766 37,000 185 452 0
2021-07-16 16:34:50 GMT 48.680698 -3.519456 37,000 185 452 0
2021-07-16 16:34:47 GMT 48.680698 -3.519456 37,000 185 452 0
2021-07-16 16:34:45 GMT 48.686703 -3.518805 37,000 185 452 0
2021-07-16 16:34:41 GMT 48.693832 -3.517949 37,000 185 452 0
2021-07-16 16:34:38 GMT 48.699085 -3.517360 37,000 185 452 0
2021-07-16 16:34:36 GMT 48.702347 -3.516963 37,000 185 452 0
2021-07-16 16:34:34 GMT 48.707561 -3.516348 37,000 185 452 0
2021-07-16 16:34:31 GMT 48.713890 -3.515625 37,000 185 452 0
2021-07-16 16:34:28 GMT 48.733395 -3.513384 37,000 185 452 0
2021-07-16 16:34:23 GMT 48.733395 -3.513384 37,000 185 452 0
2021-07-16 16:34:20 GMT 48.743824 -3.512156 37,000 185 453 0
2021-07-16 16:34:17 GMT 48.743824 -3.512156 37,000 185 453 0
2021-07-16 16:34:14 GMT 48.750000 -3.511399 37,000 185 453 0
2021-07-16 16:34:11 GMT 48.756500 -3.510625 37,000 185 453 0
2021-07-16 16:34:07 GMT 48.764877 -3.509639 37,000 185 453 0
2021-07-16 16:34:03 GMT 48.775063 -3.508469 37,000 185 453 -64
2021-07-16 16:34:00 GMT 48.777328 -3.508230 37,000 185 453 -64
2021-07-16 16:33:58 GMT 48.788280 -3.506952 37,000 185 453 0
2021-07-16 16:33:55 GMT 48.788280 -3.506952 37,000 185 453 0
2021-07-16 16:33:53 GMT 48.792480 -3.506470 37,000 185 453 0
2021-07-16 16:33:50 GMT 48.798660 -3.505765 37,000 185 453 0
2021-07-16 16:33:48 GMT 48.804249 -3.505072 37,000 185 453 0
2021-07-16 16:33:45 GMT 48.810654 -3.504357 37,000 185 453 0
2021-07-16 16:33:43 GMT 48.813515 -3.503988 37,000 185 453 0
2021-07-16 16:33:40 GMT 48.820728 -3.503121 37,000 185 453 0
2021-07-16 16:33:38 GMT 48.824478 -3.502737 37,000 185 453 0
2021-07-16 16:33:35 GMT 48.831253 -3.501892 37,000 185 453 0
2021-07-16 16:33:33 GMT 48.834274 -3.501531 37,000 185 453 0
2021-07-16 16:33:30 GMT 48.840591 -3.500765 37,000 185 453 0
2021-07-16 16:33:28 GMT 48.846146 -3.500157 37,000 185 453 0
2021-07-16 16:33:26 GMT 48.850204 -3.499638 37,000 185 453 0
2021-07-16 16:33:23 GMT 48.855606 -3.499005 37,000 185 453 0
2021-07-16 16:33:20 GMT 48.866955 -3.497700 37,000 185 453 0
2021-07-16 16:33:18 GMT 48.866955 -3.497700 37,000 185 453 0
2021-07-16 16:33:16 GMT 48.871033 -3.497174 37,000 185 453 0
2021-07-16 16:33:13 GMT 48.876434 -3.496540 37,000 185 453 0
2021-07-16 16:33:10 GMT 48.883900 -3.495676 37,000 185 452 0
2021-07-16 16:33:08 GMT 48.888199 -3.495131 37,000 185 452 0
2021-07-16 16:33:06 GMT 48.898705 -3.493941 37,000 185 452 0
2021-07-16 16:33:02 GMT 48.898705 -3.493941 37,000 185 452 0
2021-07-16 16:32:59 GMT 48.906235 -3.493019 37,000 185 452 0
2021-07-16 16:32:57 GMT 48.910629 -3.492526 37,000 185 452 0
2021-07-16 16:32:54 GMT 48.916485 -3.491773 37,000 185 452 0
2021-07-16 16:32:51 GMT 48.926697 -3.490624 37,000 185 452 0
2021-07-16 16:32:49 GMT 48.933929 -3.489709 37,000 185 452 0
2021-07-16 16:32:46 GMT 48.933929 -3.489709 37,000 185 452 0
2021-07-16 16:32:43 GMT 48.939156 -3.489099 37,000 185 452 0
2021-07-16 16:32:40 GMT 48.945602 -3.488370 37,000 185 452 0
2021-07-16 16:32:37 GMT 48.958103 -3.486858 37,000 185 452 0
2021-07-16 16:32:34 GMT 48.958103 -3.486858 37,000 185 452 0
2021-07-16 16:32:32 GMT 48.962524 -3.486352 37,000 185 452 0
2021-07-16 16:32:29 GMT 48.969090 -3.485557 37,000 185 452 0
2021-07-16 16:32:27 GMT 48.981102 -3.484184 37,000 185 452 0
2021-07-16 16:32:23 GMT 48.981102 -3.484184 37,000 185 452 0
2021-07-16 16:32:19 GMT 48.992924 -3.482738 37,000 185 452 0
2021-07-16 16:32:17 GMT 48.992924 -3.482738 37,000 185 452 0
2021-07-16 16:32:15 GMT 48.997833 -3.482173 37,000 185 452 0
2021-07-16 16:32:12 GMT 49.002914 -3.481539 37,000 185 452 0
2021-07-16 16:32:09 GMT 49.008892 -3.480859 37,000 185 452 0
2021-07-16 16:32:06 GMT 49.015320 -3.480060 37,000 185 452 0
2021-07-16 16:32:03 GMT 49.024117 -3.479052 37,000 185 452 0
2021-07-16 16:32:00 GMT 49.030838 -3.478229 37,000 185 452 0
2021-07-16 16:31:57 GMT 49.035149 -3.477751 37,000 185 452 0
2021-07-16 16:31:54 GMT 49.042282 -3.476891 37,000 185 452 0
2021-07-16 16:31:50 GMT 49.048416 -3.476116 37,000 185 452 0
2021-07-16 16:31:48 GMT 49.053349 -3.475583 37,000 185 452 0
2021-07-16 16:31:46 GMT 49.066292 -3.473993 37,000 185 452 0
2021-07-16 16:31:42 GMT 49.066292 -3.473993 37,000 185 452 0
2021-07-16 16:31:39 GMT 49.072857 -3.473270 37,000 185 452 0
2021-07-16 16:31:36 GMT 49.078953 -3.472547 37,000 185 452 0
2021-07-16 16:31:32 GMT 49.084625 -3.471891 37,000 185 452 0
2021-07-16 16:31:30 GMT 49.091400 -3.471046 37,000 185 452 0
2021-07-16 16:31:27 GMT 49.098038 -3.470271 37,000 185 452 0
2021-07-16 16:31:25 GMT 49.103165 -3.469708 37,000 185 452 0
2021-07-16 16:31:22 GMT 49.108292 -3.469074 37,000 185 452 0
2021-07-16 16:31:19 GMT 49.119461 -3.467736 37,000 185 452 0
2021-07-16 16:31:17 GMT 49.119461 -3.467736 37,000 185 452 0
2021-07-16 16:31:15 GMT 49.121410 -3.467488 37,000 185 452 0
2021-07-16 16:31:12 GMT 49.127739 -3.466765 37,000 185 452 0
2021-07-16 16:31:10 GMT 49.132862 -3.466114 37,000 185 452 0
2021-07-16 16:31:08 GMT 49.137634 -3.465553 37,000 185 452 0
2021-07-16 16:31:06 GMT 49.141617 -3.465060 37,000 185 452 0
2021-07-16 16:31:03 GMT 49.147060 -3.464452 37,000 185 452 0
2021-07-16 16:31:01 GMT 49.158558 -3.463079 37,000 185 452 0
2021-07-16 16:30:58 GMT 49.158558 -3.463079 37,000 185 452 0
2021-07-16 16:30:56 GMT 49.162582 -3.462595 37,000 185 452 0
2021-07-16 16:30:52 GMT 49.171917 -3.461488 37,000 185 452 0
2021-07-16 16:30:49 GMT 49.175949 -3.460975 37,000 185 452 0
2021-07-16 16:30:47 GMT 49.181602 -3.460332 37,000 185 452 0
2021-07-16 16:30:45 GMT 49.185928 -3.459778 37,000 185 452 0
2021-07-16 16:30:41 GMT 49.193611 -3.458886 37,000 185 452 0
2021-07-16 16:30:38 GMT 49.200642 -3.458019 37,000 185 452 0
2021-07-16 16:30:35 GMT 49.205063 -3.457513 37,000 185 452 0
2021-07-16 16:30:31 GMT 49.220890 -3.455562 37,000 185 452 0
2021-07-16 16:30:28 GMT 49.220890 -3.455562 37,000 185 452 0
2021-07-16 16:30:25 GMT 49.226151 -3.454911 37,000 185 452 0
2021-07-16 16:30:22 GMT 49.233974 -3.453971 37,000 185 452 0
2021-07-16 16:30:19 GMT 49.240864 -3.453176 37,000 185 452 0
2021-07-16 16:30:16 GMT 49.244820 -3.452743 37,000 185 452 0
2021-07-16 16:30:13 GMT 49.251476 -3.451875 37,000 185 452 0
2021-07-16 16:30:09 GMT 49.260269 -3.450834 37,000 185 452 0
2021-07-16 16:30:06 GMT 49.266838 -3.450068 37,000 185 452 0
2021-07-16 16:30:03 GMT 49.273216 -3.449273 37,000 185 452 0
2021-07-16 16:29:59 GMT 49.280411 -3.448439 37,000 185 452 0
2021-07-16 16:29:56 GMT 49.287598 -3.447594 37,000 185 452 0
2021-07-16 16:29:54 GMT 49.291809 -3.447031 37,000 185 452 0
2021-07-16 16:29:51 GMT 49.297890 -3.446310 37,000 185 452 0
2021-07-16 16:29:48 GMT 49.303894 -3.445587 37,000 185 452 0
2021-07-16 16:29:46 GMT 49.309158 -3.444989 37,000 185 452 0
2021-07-16 16:29:43 GMT 49.314651 -3.444284 37,000 185 452 0
2021-07-16 16:29:39 GMT 49.322796 -3.443347 37,000 185 452 0
2021-07-16 16:29:36 GMT 49.329220 -3.442551 37,000 185 452 0
2021-07-16 16:29:34 GMT 49.339924 -3.441323 37,000 185 451 0
2021-07-16 16:29:31 GMT 49.339924 -3.441323 37,000 185 452 0
2021-07-16 16:29:28 GMT 49.344162 -3.440817 37,000 185 452 0
2021-07-16 16:29:26 GMT 49.349945 -3.440129 37,000 185 452 0
2021-07-16 16:29:24 GMT 49.354065 -3.439636 37,000 185 452 0
2021-07-16 16:29:21 GMT 49.361198 -3.438793 37,000 185 451 0
2021-07-16 16:29:18 GMT 49.366600 -3.438142 37,000 185 451 0
2021-07-16 16:29:15 GMT 49.373165 -3.437420 37,000 185 451 0
2021-07-16 16:29:11 GMT 49.380100 -3.436552 37,000 185 451 0
2021-07-16 16:29:09 GMT 49.385880 -3.435904 37,000 185 451 0
2021-07-16 16:29:06 GMT 49.391739 -3.435199 37,000 185 451 0
2021-07-16 16:29:04 GMT 49.395905 -3.434706 37,000 185 451 0
2021-07-16 16:29:01 GMT 49.401840 -3.433950 37,000 185 451 0
2021-07-16 16:28:58 GMT 49.414921 -3.432432 37,000 185 451 0
2021-07-16 16:28:55 GMT 49.414921 -3.432432 37,000 185 451 0
2021-07-16 16:28:52 GMT 49.425522 -3.431185 37,000 185 451 0
2021-07-16 16:28:49 GMT 49.425522 -3.431185 37,000 185 451 0
2021-07-16 16:28:47 GMT 49.431061 -3.430553 37,000 185 451 0
2021-07-16 16:28:44 GMT 49.437126 -3.429813 37,000 185 451 0
2021-07-16 16:28:41 GMT 49.442245 -3.429219 37,000 185 451 0
2021-07-16 16:28:39 GMT 49.448181 -3.428529 37,000 185 450 0
2021-07-16 16:28:36 GMT 49.454350 -3.427809 37,000 185 450 0
2021-07-16 16:28:34 GMT 49.458447 -3.427289 37,000 185 450 0
2021-07-16 16:28:31 GMT 49.464432 -3.426578 37,000 185 450 0
2021-07-16 16:28:28 GMT 49.476105 -3.425205 37,000 185 450 0
2021-07-16 16:28:25 GMT 49.482422 -3.424394 37,000 185 450 0
2021-07-16 16:28:22 GMT 49.482422 -3.424394 37,000 185 450 0
2021-07-16 16:28:18 GMT 49.491669 -3.423325 37,000 185 450 0
2021-07-16 16:28:16 GMT 49.499786 -3.422315 37,000 185 450 0
2021-07-16 16:28:13 GMT 49.499786 -3.422315 37,000 185 450 0
2021-07-16 16:28:10 GMT 49.509201 -3.421157 37,000 185 450 0
2021-07-16 16:28:07 GMT 49.516731 -3.420237 37,000 185 450 0
2021-07-16 16:28:03 GMT 49.520874 -3.419784 37,000 185 450 0
2021-07-16 16:28:01 GMT 49.526230 -3.419123 37,000 185 450 0
2021-07-16 16:27:58 GMT 49.531349 -3.418530 37,000 185 450 0
2021-07-16 16:27:56 GMT 49.537029 -3.417787 37,000 185 450 0
2021-07-16 16:27:54 GMT 49.546944 -3.416600 37,000 185 450 0
2021-07-16 16:27:51 GMT 49.546944 -3.416600 37,000 185 450 0
2021-07-16 16:27:48 GMT 49.552963 -3.415881 37,000 185 450 0
2021-07-16 16:27:45 GMT 49.557541 -3.415302 37,000 185 450 0
2021-07-16 16:27:43 GMT 49.563812 -3.414507 37,000 185 450 0
2021-07-16 16:27:41 GMT 49.568077 -3.414001 37,000 185 450 0
2021-07-16 16:27:37 GMT 49.576492 -3.412990 37,000 185 450 0
2021-07-16 16:27:35 GMT 49.578598 -3.412740 37,000 185 450 0
2021-07-16 16:27:33 GMT 49.584000 -3.412071 37,000 185 450 0
2021-07-16 16:27:30 GMT 49.590191 -3.411329 37,000 185 450 0
2021-07-16 16:27:27 GMT 49.595490 -3.410677 37,000 185 450 0
2021-07-16 16:27:25 GMT 49.601624 -3.409882 37,000 185 450 0
2021-07-16 16:27:23 GMT 49.605835 -3.409376 37,000 185 450 0
2021-07-16 16:27:20 GMT 49.610046 -3.408870 37,000 185 450 0
2021-07-16 16:27:18 GMT 49.615280 -3.408286 37,000 185 450 0
2021-07-16 16:27:16 GMT 49.628082 -3.406701 37,000 185 450 0
2021-07-16 16:27:13 GMT 49.628082 -3.406701 37,000 185 450 0
2021-07-16 16:27:10 GMT 49.630363 -3.406430 37,000 185 450 0
2021-07-16 16:27:07 GMT 49.636604 -3.405687 37,000 185 450 0
2021-07-16 16:27:05 GMT 49.641769 -3.405039 37,000 185 451 0
2021-07-16 16:27:02 GMT 49.647682 -3.404351 37,000 185 451 0
2021-07-16 16:27:00 GMT 49.657505 -3.403164 37,000 185 451 0
2021-07-16 16:26:57 GMT 49.657505 -3.403164 37,000 185 451 0
2021-07-16 16:26:55 GMT 49.667084 -3.402003 37,000 185 451 0
2021-07-16 16:26:53 GMT 49.667084 -3.402003 37,000 185 451 0
2021-07-16 16:26:51 GMT 49.671661 -3.401425 37,000 185 451 0
2021-07-16 16:26:48 GMT 49.677849 -3.400714 37,000 185 451 0
2021-07-16 16:26:46 GMT 49.681961 -3.400196 37,000 185 451 0
2021-07-16 16:26:44 GMT 49.686127 -3.399690 37,000 185 451 0
2021-07-16 16:26:41 GMT 49.698074 -3.398245 37,000 185 451 0
2021-07-16 16:26:38 GMT 49.698074 -3.398245 37,000 185 451 0
2021-07-16 16:26:35 GMT 49.705315 -3.397374 37,000 185 451 0
2021-07-16 16:26:33 GMT 49.708649 -3.396944 37,000 185 451 0
2021-07-16 16:26:30 GMT 49.716888 -3.395932 37,000 185 451 0
2021-07-16 16:26:27 GMT 49.720779 -3.395498 37,000 185 452 0
2021-07-16 16:26:24 GMT 49.726776 -3.394701 37,000 185 451 0
2021-07-16 16:26:22 GMT 49.731262 -3.394197 37,000 185 451 0
2021-07-16 16:26:19 GMT 49.741287 -3.392968 37,000 185 451 0
2021-07-16 16:26:17 GMT 49.741287 -3.392968 37,000 185 451 0
2021-07-16 16:26:15 GMT 49.745583 -3.392400 37,000 185 451 0
2021-07-16 16:26:12 GMT 49.757732 -3.390915 37,000 185 451 0
2021-07-16 16:26:09 GMT 49.763367 -3.390247 37,000 185 451 0
2021-07-16 16:26:07 GMT 49.763367 -3.390247 37,000 185 451 0
2021-07-16 16:26:04 GMT 49.769508 -3.389431 37,000 185 451 0
2021-07-16 16:26:00 GMT 49.783951 -3.387692 37,000 185 451 0
2021-07-16 16:25:57 GMT 49.783951 -3.387692 37,000 185 451 0
2021-07-16 16:25:55 GMT 49.787991 -3.387204 37,000 185 451 0
2021-07-16 16:25:53 GMT 49.792007 -3.386680 37,000 185 451 0
2021-07-16 16:25:50 GMT 49.797626 -3.386016 37,000 185 451 0
2021-07-16 16:25:48 GMT 49.808716 -3.384656 37,000 185 451 0
2021-07-16 16:25:45 GMT 49.808716 -3.384656 37,000 185 451 0
2021-07-16 16:25:42 GMT 49.813934 -3.384006 37,000 185 451 0
2021-07-16 16:25:40 GMT 49.824440 -3.382750 37,000 185 452 0
2021-07-16 16:25:37 GMT 49.830914 -3.381933 37,000 185 452 0
2021-07-16 16:25:34 GMT 49.830914 -3.381933 37,000 185 452 0
2021-07-16 16:25:31 GMT 49.836960 -3.381187 37,000 185 452 0
2021-07-16 16:25:28 GMT 49.849777 -3.379669 37,000 185 452 0
2021-07-16 16:25:26 GMT 49.849777 -3.379669 37,000 185 452 0
2021-07-16 16:25:22 GMT 49.855133 -3.379019 37,000 185 452 0
2021-07-16 16:25:20 GMT 49.860672 -3.378296 37,000 185 452 0
2021-07-16 16:25:18 GMT 49.865524 -3.377718 37,000 185 452 0
2021-07-16 16:25:15 GMT 49.870995 -3.377108 37,000 185 452 0
2021-07-16 16:25:12 GMT 49.877243 -3.376344 37,000 185 452 0
2021-07-16 16:25:10 GMT 49.881088 -3.375838 37,000 185 452 0
2021-07-16 16:25:07 GMT 49.887054 -3.375178 37,000 185 452 0
2021-07-16 16:25:04 GMT 49.894966 -3.374213 37,000 185 452 0
2021-07-16 16:25:01 GMT 49.903301 -3.373174 37,000 185 452 0
2021-07-16 16:24:59 GMT 49.903301 -3.373174 37,000 185 452 0
2021-07-16 16:24:56 GMT 49.910614 -3.372297 37,000 185 452 0
2021-07-16 16:24:53 GMT 49.917171 -3.371541 37,000 185 452 0
2021-07-16 16:24:51 GMT 49.924389 -3.370650 37,000 185 452 0
2021-07-16 16:24:49 GMT 49.924389 -3.370650 37,000 185 452 0
2021-07-16 16:24:46 GMT 49.930115 -3.369908 37,000 185 452 0
2021-07-16 16:24:43 GMT 49.944855 -3.368105 37,000 185 452 0
2021-07-16 16:24:39 GMT 49.944855 -3.368105 37,000 185 452 0
2021-07-16 16:24:37 GMT 49.948547 -3.367681 37,000 185 452 0
2021-07-16 16:24:35 GMT 49.953995 -3.367013 37,000 185 452 0
2021-07-16 16:24:32 GMT 49.966003 -3.365575 37,000 185 453 0
2021-07-16 16:24:29 GMT 49.966003 -3.365575 37,000 185 453 0
2021-07-16 16:24:26 GMT 49.972477 -3.364786 37,000 185 453 0
2021-07-16 16:24:24 GMT 49.977676 -3.364129 37,000 185 453 0
2021-07-16 16:24:21 GMT 49.981979 -3.363623 37,000 185 453 0
2021-07-16 16:24:19 GMT 49.987976 -3.362828 37,000 185 453 0
2021-07-16 16:24:16 GMT 49.993332 -3.362178 37,000 185 453 0
2021-07-16 16:24:13 GMT 50.001709 -3.361166 37,000 185 453 0
2021-07-16 16:24:10 GMT 50.007797 -3.360443 37,000 185 453 0
2021-07-16 16:24:07 GMT 50.012047 -3.359886 37,000 185 453 0
2021-07-16 16:24:05 GMT 50.018097 -3.359142 37,000 185 453 0
2021-07-16 16:24:02 GMT 50.022427 -3.358624 37,000 185 453 0
2021-07-16 16:24:00 GMT 50.026432 -3.358179 37,000 185 453 0
2021-07-16 16:23:57 GMT 50.034576 -3.357191 37,000 185 453 0
2021-07-16 16:23:54 GMT 50.040024 -3.356540 37,000 185 453 0
2021-07-16 16:23:52 GMT 50.045380 -3.355952 37,000 185 453 0
2021-07-16 16:23:49 GMT 50.049591 -3.355384 37,000 186 454 0
2021-07-16 16:23:47 GMT 50.057899 -3.354245 37,000 187 453 0
2021-07-16 16:23:43 GMT 50.063114 -3.353354 37,000 187 453 0
2021-07-16 16:23:39 GMT 50.071495 -3.351721 37,000 189 452 0
2021-07-16 16:23:36 GMT 50.078293 -3.350107 37,000 190 452 0
2021-07-16 16:23:33 GMT 50.084610 -3.348373 37,000 191 452 0
2021-07-16 16:23:30 GMT 50.090115 -3.346822 37,000 192 452 0
2021-07-16 16:23:27 GMT 50.095551 -3.345048 37,000 193 451 0
2021-07-16 16:23:24 GMT 50.107590 -3.340639 37,000 195 451 0
2021-07-16 16:23:21 GMT 50.110886 -3.339266 37,000 196 451 0
2021-07-16 16:23:17 GMT 50.115967 -3.337097 37,000 197 450 0
2021-07-16 16:23:15 GMT 50.119118 -3.335613 37,000 198 450 0
2021-07-16 16:23:12 GMT 50.126083 -3.332255 37,000 199 450 0
2021-07-16 16:23:09 GMT 50.131870 -3.329303 37,000 199 450 0
2021-07-16 16:23:06 GMT 50.139786 -3.325220 37,000 199 450 0
2021-07-16 16:23:02 GMT 50.145813 -3.322136 37,000 199 450 0
2021-07-16 16:22:59 GMT 50.156078 -3.316906 37,000 199 450 0
2021-07-16 16:22:57 GMT 50.156078 -3.316906 37,000 199 450 0
2021-07-16 16:22:55 GMT 50.160599 -3.314546 37,000 199 450 0
2021-07-16 16:22:52 GMT 50.166553 -3.311487 37,000 199 450 0
2021-07-16 16:22:48 GMT 50.173023 -3.308147 37,000 199 450 0
2021-07-16 16:22:46 GMT 50.179504 -3.304861 37,000 199 450 0
2021-07-16 16:22:42 GMT 50.191086 -3.298934 37,000 199 450 0
2021-07-16 16:22:39 GMT 50.191086 -3.298934 37,000 199 450 0
2021-07-16 16:22:37 GMT 50.195480 -3.296621 37,000 199 450 0
2021-07-16 16:22:35 GMT 50.205238 -3.291593 37,000 199 450 0
2021-07-16 16:22:32 GMT 50.205238 -3.291593 37,000 199 451 0
2021-07-16 16:22:29 GMT 50.211273 -3.288526 37,000 199 451 0
2021-07-16 16:22:27 GMT 50.215294 -3.286471 37,000 199 451 0
2021-07-16 16:22:24 GMT 50.220787 -3.283650 37,000 199 451 0
2021-07-16 16:22:21 GMT 50.226139 -3.280904 37,000 199 451 0
2021-07-16 16:22:19 GMT 50.230190 -3.278825 37,000 199 451 0
2021-07-16 16:22:17 GMT 50.235397 -3.276166 37,000 199 451 0
2021-07-16 16:22:12 GMT 50.244389 -3.271550 37,000 199 450 0
2021-07-16 16:22:10 GMT 50.248672 -3.269323 37,000 199 450 0
2021-07-16 16:22:08 GMT 50.252609 -3.267276 37,000 199 450 0
2021-07-16 16:22:05 GMT 50.260300 -3.263373 37,000 199 450 0
2021-07-16 16:22:02 GMT 50.263847 -3.261529 37,000 199 450 0
2021-07-16 16:22:00 GMT 50.270832 -3.257966 37,000 199 450 0
2021-07-16 16:21:58 GMT 50.270832 -3.257966 37,000 199 450 0
2021-07-16 16:21:56 GMT 50.275085 -3.255784 37,000 199 450 0
2021-07-16 16:21:54 GMT 50.280945 -3.252748 37,000 199 450 0
2021-07-16 16:21:51 GMT 50.285961 -3.250172 37,000 199 450 0
2021-07-16 16:21:47 GMT 50.294128 -3.246026 37,000 199 450 0
2021-07-16 16:21:45 GMT 50.298431 -3.243786 37,000 199 450 0
2021-07-16 16:21:42 GMT 50.305187 -3.240373 37,000 199 450 0
2021-07-16 16:21:39 GMT 50.309555 -3.238076 37,000 199 450 0
2021-07-16 16:21:37 GMT 50.313564 -3.236067 37,000 199 449 0
2021-07-16 16:21:34 GMT 50.319580 -3.232944 37,000 199 449 0
2021-07-16 16:21:31 GMT 50.324596 -3.230352 37,000 199 449 0
2021-07-16 16:21:28 GMT 50.330883 -3.227160 37,000 199 449 0
2021-07-16 16:21:26 GMT 50.334137 -3.225499 37,000 199 449 0
2021-07-16 16:21:24 GMT 50.339859 -3.222536 37,000 199 449 0
2021-07-16 16:21:21 GMT 50.349701 -3.217476 37,000 199 449 0
2021-07-16 16:21:19 GMT 50.349701 -3.217476 37,000 199 449 0
2021-07-16 16:21:16 GMT 50.355370 -3.214540 37,000 199 449 0
2021-07-16 16:21:14 GMT 50.358444 -3.212995 37,000 199 449 0
2021-07-16 16:21:11 GMT 50.365051 -3.209567 37,000 199 448 0
2021-07-16 16:21:08 GMT 50.370964 -3.206523 37,000 199 448 0
2021-07-16 16:21:06 GMT 50.374237 -3.204828 37,000 199 448 0
2021-07-16 16:21:04 GMT 50.378227 -3.202812 37,000 199 448 0
2021-07-16 16:21:01 GMT 50.386559 -3.198506 37,000 199 448 0
2021-07-16 16:20:58 GMT 50.389481 -3.196949 37,000 199 449 0
2021-07-16 16:20:56 GMT 50.394196 -3.194492 37,000 199 448 0
2021-07-16 16:20:54 GMT 50.398911 -3.192034 37,000 190 449 0
2021-07-16 16:20:52 GMT 50.402386 -3.190192 37,000 199 448 0
2021-07-16 16:20:49 GMT 50.413422 -3.184699 37,000 198 448 0
2021-07-16 16:20:47 GMT 50.413422 -3.184699 37,000 197 448 0
2021-07-16 16:20:44 GMT 50.417267 -3.182999 37,000 197 448 0
2021-07-16 16:20:41 GMT 50.426559 -3.178952 37,000 195 449 0
2021-07-16 16:20:38 GMT 50.429619 -3.177795 37,000 194 449 0
2021-07-16 16:20:36 GMT 50.432411 -3.176682 37,000 193 449 0
2021-07-16 16:20:34 GMT 50.437454 -3.174904 37,000 192 449 0
2021-07-16 16:20:31 GMT 50.445400 -3.172228 37,000 190 450 0
2021-07-16 16:20:28 GMT 50.450684 -3.170640 37,000 190 449 0
2021-07-16 16:20:26 GMT 50.454803 -3.169556 37,000 190 449 0
2021-07-16 16:20:23 GMT 50.463181 -3.167460 37,000 188 450 0
2021-07-16 16:20:20 GMT 50.465286 -3.167026 37,000 188 450 0
2021-07-16 16:20:18 GMT 50.469517 -3.166141 37,000 187 450 0
2021-07-16 16:20:16 GMT 50.474960 -3.165102 37,000 187 450 0
2021-07-16 16:20:13 GMT 50.480804 -3.164062 37,000 187 450 0
2021-07-16 16:20:11 GMT 50.485748 -3.163123 37,000 187 450 0
2021-07-16 16:20:08 GMT 50.495117 -3.161316 37,000 187 450 0
2021-07-16 16:20:06 GMT 50.495117 -3.161316 37,000 187 450 0
2021-07-16 16:20:01 GMT 50.511612 -3.158208 37,000 187 450 0
2021-07-16 16:19:58 GMT 50.516693 -3.157268 37,000 187 450 0
2021-07-16 16:19:56 GMT 50.516693 -3.157268 37,000 187 450 0
2021-07-16 16:19:54 GMT 50.519943 -3.156690 37,000 187 450 0
2021-07-16 16:19:52 GMT 50.524109 -3.155895 37,000 187 450 0
2021-07-16 16:19:50 GMT 50.529102 -3.154932 37,000 187 450 0
2021-07-16 16:19:47 GMT 50.534176 -3.153967 37,000 187 450 0
2021-07-16 16:19:45 GMT 50.538483 -3.153221 37,000 187 450 0
2021-07-16 16:19:43 GMT 50.544159 -3.152137 37,000 187 449 0
2021-07-16 16:19:40 GMT 50.548965 -3.151197 37,000 187 449 0
2021-07-16 16:19:38 GMT 50.553131 -3.150402 37,000 187 449 0
2021-07-16 16:19:36 GMT 50.558617 -3.149365 37,000 187 449 0
2021-07-16 16:19:33 GMT 50.569977 -3.147222 37,000 187 449 0
2021-07-16 16:19:30 GMT 50.577072 -3.145921 37,000 187 449 0
2021-07-16 16:19:27 GMT 50.582218 -3.144911 37,000 187 449 0
2021-07-16 16:19:24 GMT 50.582218 -3.144911 37,000 187 449 0
2021-07-16 16:19:22 GMT 50.585495 -3.144330 37,000 187 449 0
2021-07-16 16:19:20 GMT 50.591721 -3.143102 37,000 187 449 0
2021-07-16 16:19:17 GMT 50.595612 -3.142379 37,000 187 449 0
2021-07-16 16:19:15 GMT 50.604843 -3.140605 37,000 187 449 0
2021-07-16 16:19:13 GMT 50.604843 -3.140605 37,000 187 449 0
2021-07-16 16:19:10 GMT 50.611542 -3.139343 37,000 187 449 0
2021-07-16 16:19:07 GMT 50.616760 -3.138378 37,000 187 449 0
2021-07-16 16:19:05 GMT 50.621429 -3.137464 37,000 187 449 0
2021-07-16 16:19:03 GMT 50.624676 -3.136894 37,000 187 449 0
2021-07-16 16:19:00 GMT 50.630539 -3.135729 37,000 187 449 0
2021-07-16 16:18:58 GMT 50.635845 -3.134741 37,000 187 449 0
2021-07-16 16:18:56 GMT 50.641571 -3.133633 37,000 187 449 0
2021-07-16 16:18:53 GMT 50.645668 -3.132885 37,000 187 449 0
2021-07-16 16:18:51 GMT 50.649860 -3.132069 37,000 187 449 0
2021-07-16 16:18:48 GMT 50.656284 -3.130881 37,000 187 449 0
2021-07-16 16:18:46 GMT 50.660248 -3.130092 37,000 187 449 0
2021-07-16 16:18:44 GMT 50.664276 -3.129369 37,000 187 448 0
2021-07-16 16:18:41 GMT 50.670574 -3.128134 37,000 187 448 0
2021-07-16 16:18:39 GMT 50.674393 -3.127441 37,000 187 448 0
2021-07-16 16:18:37 GMT 50.679699 -3.126450 37,000 187 448 0
2021-07-16 16:18:35 GMT 50.685146 -3.125381 37,000 187 448 0
2021-07-16 16:18:32 GMT 50.695621 -3.123398 37,000 187 448 0
2021-07-16 16:18:29 GMT 50.699997 -3.122559 37,000 187 448 0
2021-07-16 16:18:27 GMT 50.699997 -3.122559 37,000 187 448 0
2021-07-16 16:18:25 GMT 50.704140 -3.121796 37,000 187 448 0
2021-07-16 16:18:23 GMT 50.707024 -3.121262 37,000 187 448 0
2021-07-16 16:18:21 GMT 50.712067 -3.120266 37,000 187 448 0
2021-07-16 16:18:19 GMT 50.716827 -3.119375 37,000 187 448 0
2021-07-16 16:18:17 GMT 50.722061 -3.118362 37,000 187 448 0
2021-07-16 16:18:14 GMT 50.727879 -3.117294 37,000 187 448 0
2021-07-16 16:18:10 GMT 50.733654 -3.116150 37,000 187 448 0
2021-07-16 16:18:08 GMT 50.737751 -3.115387 37,000 187 448 0
2021-07-16 16:18:06 GMT 50.743382 -3.114319 37,000 187 448 0
2021-07-16 16:18:03 GMT 50.749573 -3.113098 37,000 187 448 0
2021-07-16 16:18:00 GMT 50.755020 -3.112106 37,000 187 448 0
2021-07-16 16:17:58 GMT 50.761551 -3.110838 37,000 187 448 0
2021-07-16 16:17:54 GMT 50.766998 -3.109799 37,000 187 448 0
2021-07-16 16:17:51 GMT 50.774014 -3.108444 37,000 187 448 0
2021-07-16 16:17:46 GMT 50.785812 -3.106162 37,000 187 448 0
2021-07-16 16:17:43 GMT 50.792038 -3.104974 37,000 187 448 0
2021-07-16 16:17:40 GMT 50.796032 -3.104248 37,000 187 448 0
2021-07-16 16:17:37 GMT 50.802597 -3.103027 37,000 187 448 0
2021-07-16 16:17:34 GMT 50.809982 -3.101559 37,000 187 448 0
2021-07-16 16:17:31 GMT 50.816376 -3.100357 37,000 187 448 0
2021-07-16 16:17:28 GMT 50.821518 -3.099406 37,000 187 448 0
2021-07-16 16:17:26 GMT 50.823578 -3.099035 37,000 187 448 0
2021-07-16 16:17:24 GMT 50.828430 -3.098070 37,000 187 448 0
2021-07-16 16:17:21 GMT 50.833694 -3.097076 37,000 187 448 0
2021-07-16 16:17:19 GMT 50.837723 -3.096289 37,000 187 448 0
2021-07-16 16:17:17 GMT 50.842392 -3.095398 37,000 187 448 0
2021-07-16 16:17:15 GMT 50.846558 -3.094656 37,000 187 448 0
2021-07-16 16:17:13 GMT 50.851181 -3.093765 37,000 187 448 0
2021-07-16 16:17:10 GMT 50.859390 -3.092194 37,000 187 448 0
2021-07-16 16:17:07 GMT 50.863770 -3.091315 37,000 187 448 0
2021-07-16 16:17:04 GMT 50.869858 -3.090127 37,000 187 448 0
2021-07-16 16:17:02 GMT 50.873962 -3.089371 37,000 187 448 0
2021-07-16 16:16:59 GMT 50.886292 -3.087010 37,000 187 448 0
2021-07-16 16:16:56 GMT 50.886292 -3.087010 37,000 187 448 0
2021-07-16 16:16:53 GMT 50.891235 -3.086045 37,000 187 448 0
2021-07-16 16:16:51 GMT 50.897278 -3.084857 37,000 187 448 0
2021-07-16 16:16:49 GMT 50.900402 -3.084259 37,000 187 448 0
2021-07-16 16:16:47 GMT 50.904499 -3.083496 37,000 187 448 0
2021-07-16 16:16:45 GMT 50.908504 -3.082733 37,000 187 448 0
2021-07-16 16:16:43 GMT 50.919350 -3.080673 37,000 187 448 0
2021-07-16 16:16:40 GMT 50.919350 -3.080673 37,000 187 448 0
2021-07-16 16:16:38 GMT 50.922455 -3.080032 37,000 187 448 0
2021-07-16 16:16:36 GMT 50.925659 -3.079438 37,000 187 448 0
2021-07-16 16:16:34 GMT 50.931454 -3.078308 37,000 187 448 0
2021-07-16 16:16:32 GMT 50.941086 -3.076469 37,000 187 448 0
2021-07-16 16:16:29 GMT 50.941086 -3.076469 37,000 187 448 0
2021-07-16 16:16:26 GMT 50.947906 -3.075207 37,000 187 448 0
2021-07-16 16:16:24 GMT 50.952866 -3.074265 37,000 187 448 0
2021-07-16 16:16:22 GMT 50.954777 -3.073883 37,000 187 448 0
2021-07-16 16:16:20 GMT 50.959942 -3.072891 37,000 187 448 0
2021-07-16 16:16:18 GMT 50.967670 -3.071365 37,000 187 448 0
2021-07-16 16:16:16 GMT 50.967670 -3.071365 37,000 187 448 0
2021-07-16 16:16:14 GMT 50.974365 -3.070085 37,000 187 448 0
2021-07-16 16:16:11 GMT 50.978073 -3.069417 37,000 187 448 0
2021-07-16 16:16:09 GMT 50.988785 -3.067338 37,000 187 448 0
2021-07-16 16:16:06 GMT 50.992950 -3.066559 37,000 187 448 0
2021-07-16 16:16:04 GMT 50.992950 -3.066559 37,000 187 448 0
2021-07-16 16:16:01 GMT 51.001373 -3.064963 37,000 187 448 0
2021-07-16 16:15:58 GMT 51.005722 -3.064072 37,000 187 448 0
2021-07-16 16:15:55 GMT 51.012177 -3.062820 37,000 187 448 0
2021-07-16 16:15:52 GMT 51.016525 -3.061994 37,000 187 448 0
2021-07-16 16:15:50 GMT 51.021580 -3.061066 37,000 187 448 0
2021-07-16 16:15:47 GMT 51.026745 -3.060074 37,000 187 448 0
2021-07-16 16:15:45 GMT 51.030937 -3.059235 37,000 187 448 0
2021-07-16 16:15:43 GMT 51.034985 -3.058472 37,000 187 448 0
2021-07-16 16:15:41 GMT 51.040199 -3.057480 37,000 187 448 0
2021-07-16 16:15:39 GMT 51.043442 -3.056797 37,000 187 448 0
2021-07-16 16:15:37 GMT 51.047832 -3.055954 37,000 187 448 0
2021-07-16 16:15:35 GMT 51.053421 -3.054867 37,000 187 448 0
2021-07-16 16:15:32 GMT 51.057938 -3.054047 37,000 187 448 0
2021-07-16 16:15:30 GMT 51.062824 -3.053055 37,000 187 448 0
2021-07-16 16:15:27 GMT 51.068363 -3.051987 37,000 187 448 0
2021-07-16 16:15:25 GMT 51.072319 -3.051224 37,000 187 448 0
2021-07-16 16:15:23 GMT 51.076324 -3.050461 37,000 187 448 0
2021-07-16 16:15:21 GMT 51.081757 -3.049374 37,000 187 448 0
2021-07-16 16:15:19 GMT 51.084003 -3.048935 37,000 187 448 0
2021-07-16 16:15:17 GMT 51.089264 -3.047964 37,000 187 448 0
2021-07-16 16:15:15 GMT 51.093224 -3.047180 37,000 187 448 0
2021-07-16 16:15:13 GMT 51.097599 -3.046341 37,000 187 448 0
2021-07-16 16:15:11 GMT 51.103638 -3.045143 37,000 187 448 0
2021-07-16 16:15:08 GMT 51.107895 -3.044326 37,000 187 448 0
2021-07-16 16:15:06 GMT 51.111145 -3.043671 37,000 187 448 0
2021-07-16 16:15:04 GMT 51.119942 -3.041992 37,000 187 448 0
2021-07-16 16:15:02 GMT 51.119942 -3.041992 37,000 188 448 0
2021-07-16 16:14:59 GMT 51.125156 -3.041000 37,000 188 448 0
2021-07-16 16:14:57 GMT 51.135864 -3.038864 37,000 188 448 0
2021-07-16 16:14:54 GMT 51.135864 -3.038864 37,000 188 448 0
2021-07-16 16:14:52 GMT 51.146484 -3.036829 37,000 188 448 0
2021-07-16 16:14:50 GMT 51.146484 -3.036829 37,000 188 448 0
2021-07-16 16:14:47 GMT 51.150669 -3.035965 37,000 188 448 0
2021-07-16 16:14:45 GMT 51.158661 -3.034454 37,000 188 448 0
2021-07-16 16:14:43 GMT 51.158661 -3.034454 37,000 188 448 0
2021-07-16 16:14:40 GMT 51.164978 -3.033192 37,000 188 448 0
2021-07-16 16:14:38 GMT 51.169243 -3.032379 37,000 188 448 0
2021-07-16 16:14:36 GMT 51.176739 -3.030930 37,000 187 448 0
2021-07-16 16:14:34 GMT 51.176739 -3.030930 37,000 188 448 0
2021-07-16 16:14:32 GMT 51.181297 -3.030014 37,000 187 448 0
2021-07-16 16:14:29 GMT 51.189026 -3.028488 37,000 187 448 0
2021-07-16 16:14:26 GMT 51.202103 -3.025991 37,000 187 448 0
2021-07-16 16:14:23 GMT 51.202103 -3.025991 37,000 187 448 0
2021-07-16 16:14:20 GMT 51.205856 -3.025249 37,000 187 448 0
2021-07-16 16:14:18 GMT 51.214554 -3.023541 37,000 187 448 0
2021-07-16 16:14:16 GMT 51.214554 -3.023541 37,000 187 448 0
2021-07-16 16:14:13 GMT 51.226593 -3.021240 37,000 187 448 0
2021-07-16 16:14:11 GMT 51.226593 -3.021240 37,000 187 448 0
2021-07-16 16:14:08 GMT 51.230553 -3.020477 37,000 187 448 0
2021-07-16 16:14:06 GMT 51.235626 -3.019485 37,000 187 448 0
2021-07-16 16:14:04 GMT 51.239136 -3.018791 37,000 187 448 0
2021-07-16 16:14:02 GMT 51.243587 -3.017960 37,000 187 448 0
2021-07-16 16:13:59 GMT 51.251080 -3.016510 37,000 187 449 0
2021-07-16 16:13:56 GMT 51.256901 -3.015366 37,000 187 448 0
2021-07-16 16:13:53 GMT 51.261555 -3.014450 37,000 187 449 0
2021-07-16 16:13:51 GMT 51.270401 -3.012778 37,000 187 449 0
2021-07-16 16:13:49 GMT 51.270401 -3.012778 37,000 187 449 0
2021-07-16 16:13:47 GMT 51.274338 -3.011961 37,000 187 449 0
2021-07-16 16:13:44 GMT 51.281158 -3.010699 37,000 187 449 0
2021-07-16 16:13:42 GMT 51.283310 -3.010254 37,000 187 449 0
2021-07-16 16:13:40 GMT 51.296703 -3.007736 37,000 187 449 0
2021-07-16 16:13:37 GMT 51.296703 -3.007736 37,000 187 449 0
2021-07-16 16:13:34 GMT 51.305222 -3.006058 37,000 187 449 0
2021-07-16 16:13:32 GMT 51.305222 -3.006058 37,000 187 449 0
2021-07-16 16:13:29 GMT 51.311504 -3.004837 37,000 187 449 0
2021-07-16 16:13:27 GMT 51.315556 -3.004074 37,000 187 449 0
2021-07-16 16:13:25 GMT 51.319656 -3.003276 37,000 187 449 0
2021-07-16 16:13:22 GMT 51.324539 -3.002396 37,000 187 449 0
2021-07-16 16:13:20 GMT 51.329865 -3.001346 37,000 187 449 0
2021-07-16 16:13:18 GMT 51.332829 -3.000793 37,000 187 449 0
2021-07-16 16:13:16 GMT 51.345024 -2.998352 37,000 188 449 0
2021-07-16 16:13:13 GMT 51.348816 -2.997634 37,000 188 449 0
2021-07-16 16:13:11 GMT 51.348816 -2.997634 37,000 188 449 0
2021-07-16 16:13:08 GMT 51.354984 -2.996368 37,000 188 449 0
2021-07-16 16:13:06 GMT 51.360760 -2.995224 37,000 188 449 0
2021-07-16 16:13:03 GMT 51.365135 -2.994385 37,000 188 449 0
2021-07-16 16:13:00 GMT 51.369278 -2.993552 37,000 188 449 0
2021-07-16 16:12:58 GMT 51.374073 -2.992630 37,000 188 449 0
2021-07-16 16:12:56 GMT 51.385384 -2.990341 37,000 188 449 0
2021-07-16 16:12:53 GMT 51.385384 -2.990341 37,000 188 449 -64
2021-07-16 16:12:50 GMT 51.391571 -2.989098 37,000 188 449 -64
2021-07-16 16:12:48 GMT 51.394833 -2.988510 37,000 188 449 -64
2021-07-16 16:12:46 GMT 51.398605 -2.987747 37,000 188 449 -64
2021-07-16 16:12:44 GMT 51.403679 -2.986755 37,000 188 449 -128
2021-07-16 16:12:42 GMT 51.407547 -2.985980 37,000 188 449 -128
2021-07-16 16:12:40 GMT 51.411896 -2.985089 37,025 188 449 0
2021-07-16 16:12:38 GMT 51.417984 -2.983902 37,000 188 449 256
2021-07-16 16:12:35 GMT 51.422699 -2.982937 37,000 188 448 512
2021-07-16 16:12:33 GMT 51.426086 -2.982343 36,975 188 448 832
2021-07-16 16:12:31 GMT 51.430252 -2.981452 36,950 188 448 1088
2021-07-16 16:12:28 GMT 51.438950 -2.979819 36,875 188 448 1088
2021-07-16 16:12:25 GMT 51.443340 -2.978897 36,800 188 449 1024
2021-07-16 16:12:22 GMT 51.449066 -2.977815 36,775 188 449 1024
2021-07-16 16:12:20 GMT 51.452885 -2.977066 36,750 188 449 1024
2021-07-16 16:12:18 GMT 51.464245 -2.974854 36,675 188 449 1024
2021-07-16 16:12:15 GMT 51.464245 -2.974854 36,650 188 449 960
2021-07-16 16:12:12 GMT 51.470215 -2.973658 36,600 188 449 960
2021-07-16 16:12:10 GMT 51.476952 -2.972336 36,575 188 449 1088
2021-07-16 16:12:06 GMT 51.483444 -2.971059 36,500 188 449 1216
2021-07-16 16:12:04 GMT 51.490265 -2.969723 36,425 188 450 1216
2021-07-16 16:12:02 GMT 51.490265 -2.969723 36,375 188 450 1152
2021-07-16 16:11:59 GMT 51.497574 -2.968292 36,325 188 450 1216
2021-07-16 16:11:56 GMT 51.502556 -2.967300 36,300 188 450 1216
2021-07-16 16:11:54 GMT 51.506840 -2.966461 36,275 188 450 1216
2021-07-16 16:11:52 GMT 51.513821 -2.965088 36,200 187 451 1216
2021-07-16 16:11:50 GMT 51.513821 -2.965088 36,150 187 451 1216
2021-07-16 16:11:48 GMT 51.519928 -2.963859 36,125 187 451 1216
2021-07-16 16:11:46 GMT 51.522675 -2.963339 36,100 187 451 1216
2021-07-16 16:11:44 GMT 51.527973 -2.962265 36,050 187 451 1280
2021-07-16 16:11:42 GMT 51.530823 -2.961706 36,025 187 451 1280
2021-07-16 16:11:40 GMT 51.536537 -2.960587 35,975 187 452 1216
2021-07-16 16:11:38 GMT 51.539383 -2.959999 35,950 187 452 1216
2021-07-16 16:11:36 GMT 51.545849 -2.958755 35,875 187 452 1216
2021-07-16 16:11:32 GMT 51.551971 -2.957549 35,750 187 452 1152
2021-07-16 16:11:30 GMT 51.557053 -2.956510 35,750 187 452 1152
2021-07-16 16:11:28 GMT 51.561680 -2.955627 35,725 187 452 1152
2021-07-16 16:11:25 GMT 51.565727 -2.954788 35,700 187 453 1152
2021-07-16 16:11:23 GMT 51.571106 -2.953763 35,600 187 453 1216
2021-07-16 16:11:20 GMT 51.577515 -2.952501 35,575 187 453 1280
2021-07-16 16:11:18 GMT 51.580952 -2.951813 35,525 187 453 1280
2021-07-16 16:11:16 GMT 51.585022 -2.951017 35,475 187 453 1216
2021-07-16 16:11:14 GMT 51.589233 -2.950200 35,450 187 453 1216
2021-07-16 16:11:12 GMT 51.593704 -2.949295 35,400 187 453 1216
2021-07-16 16:11:09 GMT 51.599106 -2.948227 34,975 187 453 1152
2021-07-16 16:11:07 GMT 51.605392 -2.947008 35,275 187 453 1088
2021-07-16 16:11:04 GMT 51.610699 -2.945938 35,275 187 453 1152
2021-07-16 16:11:02 GMT 51.614422 -2.945251 35,200 187 453 1152
2021-07-16 16:11:00 GMT 51.618622 -2.944410 35,200 187 453 1152
2021-07-16 16:10:58 GMT 51.623684 -2.943420 35,125 187 453 1216
2021-07-16 16:10:56 GMT 51.626617 -2.942810 35,075 187 453 1216
2021-07-16 16:10:53 GMT 51.634113 -2.941360 35,025 187 453 1216
2021-07-16 16:10:50 GMT 51.643845 -2.939437 34,975 187 453 1152
2021-07-16 16:10:48 GMT 51.643845 -2.939437 34,950 187 453 1152
2021-07-16 16:10:46 GMT 51.647186 -2.938769 34,925 187 453 1152
2021-07-16 16:10:44 GMT 51.655655 -2.937061 34,750 187 453 1024
2021-07-16 16:10:42 GMT 51.655655 -2.937061 34,825 187 453 1088
2021-07-16 16:10:40 GMT 51.659134 -2.936393 34,525 187 452 1152
2021-07-16 16:10:38 GMT 51.665222 -2.935205 34,775 187 453 960
2021-07-16 16:10:34 GMT 51.673309 -2.933578 34,725 187 453 960
2021-07-16 16:10:31 GMT 51.678570 -2.932587 34,650 187 452 1024
2021-07-16 16:10:29 GMT 51.681644 -2.931976 34,625 187 452 1088
2021-07-16 16:10:27 GMT 51.686783 -2.930974 34,525 187 452 1152
2021-07-16 16:10:24 GMT 51.693562 -2.929611 34,350 187 452 1152
2021-07-16 16:10:21 GMT 51.700310 -2.928238 34,425 187 452 1152
2021-07-16 16:10:19 GMT 51.703476 -2.927628 34,450 187 451 1152
2021-07-16 16:10:17 GMT 51.709900 -2.926331 34,350 187 451 1152
2021-07-16 16:10:14 GMT 51.715904 -2.925186 34,300 187 451 1216
2021-07-16 16:10:11 GMT 51.720154 -2.924368 34,250 187 451 1216
2021-07-16 16:10:09 GMT 51.730755 -2.922211 34,225 187 451 1280
2021-07-16 16:10:06 GMT 51.734940 -2.921398 34,125 187 451 1344
2021-07-16 16:10:02 GMT 51.739838 -2.920433 34,050 187 451 1344
2021-07-16 16:09:59 GMT 51.744862 -2.919464 34,025 187 451 1344
2021-07-16 16:09:57 GMT 51.753113 -2.917835 33,950 187 451 1344
2021-07-16 16:09:53 GMT 51.757103 -2.917023 33,475 187 452 1472
2021-07-16 16:09:50 GMT 51.762955 -2.915831 33,825 188 451 1408
2021-07-16 16:09:48 GMT 51.768322 -2.914734 33,775 188 451 1408
2021-07-16 16:09:46 GMT 51.772156 -2.913975 33,750 188 451 1408
2021-07-16 16:09:44 GMT 51.778336 -2.912787 33,625 187 451 1408
2021-07-16 16:09:41 GMT 51.787457 -2.910919 33,575 187 452 1472
2021-07-16 16:09:38 GMT 51.787457 -2.910919 33,550 187 452 1472
2021-07-16 16:09:36 GMT 51.792484 -2.909927 33,500 187 452 1472
2021-07-16 16:09:34 GMT 51.798489 -2.908783 33,425 187 452 1472
2021-07-16 16:09:32 GMT 51.802444 -2.907944 33,350 187 452 1536
2021-07-16 16:09:29 GMT 51.807240 -2.907028 33,350 187 452 1536
2021-07-16 16:09:26 GMT 51.813721 -2.905735 33,225 188 452 1536
2021-07-16 16:09:21 GMT 51.824432 -2.903583 33,100 188 453 1600
2021-07-16 16:09:19 GMT 51.828423 -2.902832 33,050 188 453 1664
2021-07-16 16:09:16 GMT 51.834660 -2.901535 32,950 188 453 1600
2021-07-16 16:09:14 GMT 51.837570 -2.900984 32,850 188 453 1600
2021-07-16 16:09:12 GMT 51.842945 -2.899933 32,850 188 453 1600
2021-07-16 16:09:10 GMT 51.845924 -2.899323 32,825 188 454 1664
2021-07-16 16:09:08 GMT 51.849289 -2.898609 32,750 188 454 1664
2021-07-16 16:09:06 GMT 51.855377 -2.897415 32,700 188 454 1664
2021-07-16 16:09:04 GMT 51.861614 -2.896194 32,600 188 454 1664
2021-07-16 16:09:02 GMT 51.864395 -2.895640 32,575 188 454 1728
2021-07-16 16:08:59 GMT 51.869614 -2.894526 32,425 188 455 1792
2021-07-16 16:08:56 GMT 51.876846 -2.893116 32,375 188 455 1792
2021-07-16 16:08:53 GMT 51.881973 -2.892077 32,175 188 456 1792
2021-07-16 16:08:50 GMT 51.888016 -2.890889 32,175 188 456 1792
2021-07-16 16:08:47 GMT 51.899185 -2.888641 32,000 188 457 1792
2021-07-16 16:08:45 GMT 51.899185 -2.888641 32,000 188 457 1856
2021-07-16 16:08:42 GMT 51.905823 -2.887268 31,975 188 458 1920
2021-07-16 16:08:40 GMT 51.912094 -2.885971 31,850 188 457 1856
2021-07-16 16:08:38 GMT 51.917542 -2.884903 31,850 188 457 1856
2021-07-16 16:08:36 GMT 51.917542 -2.884903 31,825 188 458 1856
2021-07-16 16:08:34 GMT 51.923344 -2.883754 31,700 188 458 1920
2021-07-16 16:08:31 GMT 51.929031 -2.882614 31,575 188 459 1984
2021-07-16 16:08:28 GMT 51.934158 -2.881546 31,550 188 459 1920
2021-07-16 16:08:26 GMT 51.938187 -2.880707 31,475 188 459 1920
2021-07-16 16:08:24 GMT 51.943218 -2.879752 31,400 188 460 1856
2021-07-16 16:08:21 GMT 51.950016 -2.878339 31,250 188 460 1856
2021-07-16 16:08:18 GMT 51.964169 -2.875436 31,175 188 461 2048
2021-07-16 16:08:15 GMT 51.964169 -2.875436 30,875 188 463 1600
2021-07-16 16:08:12 GMT 51.968399 -2.874603 31,025 188 461 2048
2021-07-16 16:08:10 GMT 51.972565 -2.873764 30,950 188 462 2112
2021-07-16 16:08:08 GMT 51.984047 -2.871355 30,775 188 463 2112
2021-07-16 16:08:05 GMT 51.984047 -2.871355 30,725 188 463 1984
2021-07-16 16:08:02 GMT 51.994614 -2.869158 30,675 188 463 1920
2021-07-16 16:08:00 GMT 52.000351 -2.867966 30,575 188 463 1536
2021-07-16 16:07:57 GMT 52.000351 -2.867966 30,550 188 463 1536
2021-07-16 16:07:54 GMT 52.007648 -2.866411 30,425 188 463 1408
2021-07-16 16:07:51 GMT 52.013535 -2.865219 30,000 188 464 1408
2021-07-16 16:07:48 GMT 52.020172 -2.863822 30,275 188 463 1408
2021-07-16 16:07:45 GMT 52.024548 -2.862880 30,275 188 463 1408
2021-07-16 16:07:43 GMT 52.028641 -2.862015 30,225 186 462 1216
2021-07-16 16:07:41 GMT 52.032394 -2.861252 30,125 186 463 1216
2021-07-16 16:07:39 GMT 52.037952 -2.860291 30,025 186 462 1216
2021-07-16 16:07:36 GMT 52.044388 -2.859344 29,675 178 463 1408
2021-07-16 16:07:34 GMT 52.050934 -2.858582 30,000 184 462 1344
2021-07-16 16:07:31 GMT 52.055466 -2.858200 29,950 183 462 1408
2021-07-16 16:07:29 GMT 52.058899 -2.857971 29,900 182 462 1408
2021-07-16 16:07:27 GMT 52.062332 -2.857742 29,875 181 463 1472
2021-07-16 16:07:25 GMT 52.069096 -2.857544 29,800 181 463 1472
2021-07-16 16:07:22 GMT 52.073914 -2.857513 29,700 178 463 1408
2021-07-16 16:07:19 GMT 52.081715 -2.857779 29,625 176 462 1280
2021-07-16 16:07:16 GMT 52.087208 -2.858093 29,475 176 462 1280
2021-07-16 16:07:14 GMT 52.090557 -2.858407 29,525 174 463 1408
2021-07-16 16:07:11 GMT 52.097809 -2.859344 29,500 174 463 1408
2021-07-16 16:07:09 GMT 52.100830 -2.859802 29,350 174 462 1472
2021-07-16 16:07:07 GMT 52.105362 -2.860489 29,400 174 462 1408
2021-07-16 16:07:05 GMT 52.111954 -2.861557 29,325 174 462 1344
2021-07-16 16:07:02 GMT 52.118443 -2.862645 29,250 174 461 1280
2021-07-16 16:07:00 GMT 52.121559 -2.863116 29,200 174 460 1408
2021-07-16 16:06:57 GMT 52.128159 -2.864227 29,075 174 460 1408
2021-07-16 16:06:54 GMT 52.135895 -2.865448 29,100 174 458 1472
2021-07-16 16:06:51 GMT 52.138973 -2.865941 28,975 174 458 1536
2021-07-16 16:06:48 GMT 52.151123 -2.867902 28,925 174 458 1536
2021-07-16 16:06:46 GMT 52.151123 -2.867902 28,875 174 458 1536
2021-07-16 16:06:43 GMT 52.158104 -2.869080 28,800 174 458 1472
2021-07-16 16:06:40 GMT 52.163498 -2.869949 28,725 174 457 1472
2021-07-16 16:06:37 GMT 52.169403 -2.870865 28,600 174 456 1536
2021-07-16 16:06:35 GMT 52.173698 -2.871591 28,600 174 456 1536
2021-07-16 16:06:33 GMT 52.179153 -2.872467 28,550 174 456 1600
2021-07-16 16:06:31 GMT 52.181854 -2.872925 28,425 174 456 1600
2021-07-16 16:06:29 GMT 52.190186 -2.874222 28,425 174 456 1600
2021-07-16 16:06:27 GMT 52.190186 -2.874222 28,400 174 456 1536
2021-07-16 16:06:25 GMT 52.195175 -2.875061 28,300 174 455 1472
2021-07-16 16:06:22 GMT 52.201073 -2.875985 28,275 174 455 1472
2021-07-16 16:06:20 GMT 52.206287 -2.876848 28,225 174 454 1536
2021-07-16 16:06:17 GMT 52.211967 -2.877790 28,150 174 454 1600
2021-07-16 16:06:14 GMT 52.218384 -2.878799 28,075 174 454 1664
2021-07-16 16:06:11 GMT 52.224335 -2.879791 28,000 174 453 1664
2021-07-16 16:06:09 GMT 52.228119 -2.880380 27,950 174 453 1600
2021-07-16 16:06:07 GMT 52.232540 -2.881086 27,875 174 453 1600
2021-07-16 16:06:05 GMT 52.236500 -2.881714 27,800 174 452 1600
2021-07-16 16:06:03 GMT 52.246880 -2.883440 27,725 174 452 1664
2021-07-16 16:06:01 GMT 52.246880 -2.883440 27,650 174 452 1728
2021-07-16 16:05:58 GMT 52.251938 -2.884293 27,400 174 451 1728
2021-07-16 16:05:55 GMT 52.258026 -2.885284 27,500 174 451 1728
2021-07-16 16:05:52 GMT 52.267319 -2.886810 27,425 174 451 1728
2021-07-16 16:05:48 GMT 52.272720 -2.887726 27,325 174 450 1664
2021-07-16 16:05:45 GMT 52.277466 -2.888541 27,250 174 450 1664
2021-07-16 16:05:43 GMT 52.282772 -2.889404 27,150 173 449 1664
2021-07-16 16:05:40 GMT 52.293339 -2.891209 26,950 173 449 1856
2021-07-16 16:05:37 GMT 52.293339 -2.891209 27,075 173 449 1792
2021-07-16 16:05:35 GMT 52.299252 -2.892229 26,950 173 449 1984
2021-07-16 16:05:33 GMT 52.303581 -2.893014 26,900 173 449 1728
2021-07-16 16:05:31 GMT 52.308060 -2.893753 26,825 173 449 1984
2021-07-16 16:05:28 GMT 52.313370 -2.894669 26,650 173 449 1856
2021-07-16 16:05:25 GMT 52.319824 -2.895813 26,600 173 448 1664
2021-07-16 16:05:22 GMT 52.325645 -2.896859 26,575 173 447 1536
2021-07-16 16:05:20 GMT 52.332001 -2.897949 26,550 173 447 1536
2021-07-16 16:05:17 GMT 52.336399 -2.898743 26,425 173 446 1600
2021-07-16 16:05:14 GMT 52.341614 -2.899684 26,350 173 446 1664
2021-07-16 16:05:12 GMT 52.346222 -2.900548 26,300 173 446 1664
2021-07-16 16:05:10 GMT 52.351109 -2.901489 26,225 173 444 1600
2021-07-16 16:05:07 GMT 52.362797 -2.903765 26,125 173 444 1600
2021-07-16 16:05:04 GMT 52.362797 -2.903765 25,975 173 443 1600
2021-07-16 16:05:01 GMT 52.369034 -2.904942 26,000 173 443 1600
2021-07-16 16:04:58 GMT 52.375549 -2.906276 25,900 173 443 1600
2021-07-16 16:04:55 GMT 52.381439 -2.907410 25,800 173 442 1536
2021-07-16 16:04:52 GMT 52.386841 -2.908478 25,775 173 441 1472
2021-07-16 16:04:50 GMT 52.396591 -2.910357 25,675 173 439 1536
2021-07-16 16:04:47 GMT 52.401714 -2.911298 25,625 173 438 1792
2021-07-16 16:04:45 GMT 52.401714 -2.911298 25,575 173 438 1856
2021-07-16 16:04:43 GMT 52.404972 -2.911926 25,525 173 438 1984
2021-07-16 16:04:41 GMT 52.408859 -2.912674 25,475 173 438 1984
2021-07-16 16:04:39 GMT 52.413666 -2.913589 25,400 173 437 1920
2021-07-16 16:04:36 GMT 52.420010 -2.914751 25,300 173 436 1728
2021-07-16 16:04:33 GMT 52.433167 -2.917175 25,200 173 436 1600
2021-07-16 16:04:30 GMT 52.433167 -2.917175 25,125 173 436 1280
2021-07-16 16:04:27 GMT 52.437836 -2.918015 25,050 177 435 384
2021-07-16 16:04:24 GMT 52.443516 -2.918989 25,025 183 432 64
2021-07-16 16:04:21 GMT 52.449554 -2.919693 25,025 183 432 64
2021-07-16 16:04:18 GMT 52.454735 -2.919931 25,000 178 434 64
2021-07-16 16:04:15 GMT 52.461674 -2.919695 25,000 184 431 64
2021-07-16 16:04:13 GMT 52.465210 -2.919381 25,000 185 432 0
2021-07-16 16:04:11 GMT 52.468048 -2.919006 25,000 185 432 0
2021-07-16 16:04:09 GMT 52.478012 -2.917733 25,000 185 432 0
2021-07-16 16:04:07 GMT 52.483978 -2.916946 25,000 185 432 0
2021-07-16 16:04:04 GMT 52.483978 -2.916946 25,000 185 432 0
2021-07-16 16:04:01 GMT 52.489464 -2.916242 25,000 185 432 0
2021-07-16 16:03:57 GMT 52.496727 -2.915301 25,000 185 431 -64
2021-07-16 16:03:54 GMT 52.503799 -2.914352 25,000 185 431 -64
2021-07-16 16:03:51 GMT 52.512863 -2.913208 25,000 185 431 -64
2021-07-16 16:03:49 GMT 52.512863 -2.913208 25,000 185 431 0
2021-07-16 16:03:46 GMT 52.519302 -2.912397 25,000 185 431 -64
2021-07-16 16:03:43 GMT 52.525085 -2.911606 25,000 185 431 128
2021-07-16 16:03:41 GMT 52.528240 -2.911220 25,000 185 431 192
2021-07-16 16:03:39 GMT 52.534153 -2.910435 24,975 185 430 896
2021-07-16 16:03:36 GMT 52.540112 -2.909651 25,000 185 431 448
2021-07-16 16:03:33 GMT 52.545410 -2.908936 24,950 185 430 960
2021-07-16 16:03:31 GMT 52.548351 -2.908552 24,900 185 430 1024
2021-07-16 16:03:29 GMT 52.552216 -2.908081 24,850 185 430 1024
2021-07-16 16:03:26 GMT 52.559006 -2.907181 24,825 185 428 960
2021-07-16 16:03:23 GMT 52.565483 -2.906276 24,775 185 429 1024
2021-07-16 16:03:21 GMT 52.568462 -2.905962 24,725 185 429 1024
2021-07-16 16:03:19 GMT 52.571674 -2.905491 24,575 185 428 960
2021-07-16 16:03:16 GMT 52.577499 -2.904739 24,675 185 428 960
2021-07-16 16:03:14 GMT 52.585739 -2.903671 24,625 185 428 960
2021-07-16 16:03:12 GMT 52.585739 -2.903671 24,575 185 427 960
2021-07-16 16:03:09 GMT 52.592762 -2.902745 24,525 185 427 960
2021-07-16 16:03:06 GMT 52.599697 -2.901803 24,475 185 427 960
2021-07-16 16:03:03 GMT 52.604633 -2.901175 24,425 185 426 960
2021-07-16 16:03:00 GMT 52.610092 -2.900391 24,375 185 426 960
2021-07-16 16:02:58 GMT 52.613060 -2.899998 24,325 185 425 960
2021-07-16 16:02:55 GMT 52.618927 -2.899246 24,200 185 425 960
2021-07-16 16:02:52 GMT 52.626343 -2.898254 24,275 185 424 1024
2021-07-16 16:02:49 GMT 52.632339 -2.897415 24,200 185 423 1024
2021-07-16 16:02:46 GMT 52.637966 -2.896702 24,150 185 422 1088
2021-07-16 16:02:44 GMT 52.641312 -2.896271 24,125 185 421 1216
2021-07-16 16:02:42 GMT 52.644516 -2.895813 24,075 185 420 1536
2021-07-16 16:02:39 GMT 52.651421 -2.894897 23,950 185 419 2112
2021-07-16 16:02:36 GMT 52.660030 -2.893799 23,525 185 419 2048
2021-07-16 16:02:34 GMT 52.660030 -2.893799 23,800 185 419 2048
2021-07-16 16:02:32 GMT 52.664967 -2.893093 23,725 185 418 1984
2021-07-16 16:02:29 GMT 52.669693 -2.892456 23,650 185 418 1984
2021-07-16 16:02:26 GMT 52.676510 -2.891602 23,525 185 417 1984
2021-07-16 16:02:23 GMT 52.687683 -2.890091 23,400 185 417 2048
2021-07-16 16:02:20 GMT 52.687683 -2.890091 23,250 185 414 2048
2021-07-16 16:02:18 GMT 52.691734 -2.889561 23,200 185 414 2048
2021-07-16 16:02:15 GMT 52.695923 -2.889012 23,175 185 415 2048
2021-07-16 16:02:13 GMT 52.701416 -2.888306 23,000 185 414 2048
2021-07-16 16:02:10 GMT 52.707096 -2.887599 23,000 185 414 2112
2021-07-16 16:02:08 GMT 52.711990 -2.886887 22,800 185 413 2112
2021-07-16 16:02:05 GMT 52.715057 -2.886505 22,800 185 413 2112
2021-07-16 16:02:03 GMT 52.720875 -2.885795 22,700 185 412 2176
2021-07-16 16:02:00 GMT 52.725128 -2.885208 22,625 185 412 2176
2021-07-16 16:01:58 GMT 52.734238 -2.883987 22,350 185 411 2112
2021-07-16 16:01:55 GMT 52.734238 -2.883987 22,425 185 410 2112
2021-07-16 16:01:52 GMT 52.740753 -2.883126 22,325 185 410 2048
2021-07-16 16:01:50 GMT 52.744858 -2.882614 22,275 185 409 2048
2021-07-16 16:01:48 GMT 52.748566 -2.882080 21,925 185 406 2048
2021-07-16 16:01:45 GMT 52.754299 -2.881321 22,075 185 408 2048
2021-07-16 16:01:42 GMT 52.759468 -2.880694 21,975 185 407 2048
2021-07-16 16:01:40 GMT 52.763424 -2.880144 21,950 185 406 1984
2021-07-16 16:01:38 GMT 52.768387 -2.879486 21,850 185 406 1984
2021-07-16 16:01:35 GMT 52.773479 -2.878810 21,625 185 403 2176
2021-07-16 16:01:32 GMT 52.779556 -2.878036 21,600 185 404 2112
2021-07-16 16:01:29 GMT 52.782166 -2.877655 21,600 185 403 2176
2021-07-16 16:01:27 GMT 52.787567 -2.876968 21,425 185 403 2176
2021-07-16 16:01:24 GMT 52.791321 -2.876434 21,425 185 402 2048
2021-07-16 16:01:22 GMT 52.797035 -2.875671 21,275 185 401 1984
2021-07-16 16:01:20 GMT 52.805420 -2.874603 20,850 185 399 1792
2021-07-16 16:01:18 GMT 52.805420 -2.874603 20,850 185 399 1792
2021-07-16 16:01:15 GMT 52.809883 -2.874023 21,100 185 398 1792
2021-07-16 16:01:12 GMT 52.815262 -2.873306 21,000 185 397 1856
2021-07-16 16:01:09 GMT 52.821533 -2.872467 20,850 185 395 1984
2021-07-16 16:01:06 GMT 52.825710 -2.871905 20,775 185 394 1920
2021-07-16 16:01:03 GMT 52.831203 -2.871198 20,725 185 393 1984
2021-07-16 16:00:59 GMT 52.839489 -2.870021 20,625 185 392 1984
2021-07-16 16:00:56 GMT 52.845520 -2.869263 20,400 185 389 1856
2021-07-16 16:00:53 GMT 52.849125 -2.868766 20,400 185 389 1856
2021-07-16 16:00:51 GMT 52.851967 -2.868373 20,350 185 389 1856
2021-07-16 16:00:49 GMT 52.857506 -2.867667 19,800 185 382 2304
2021-07-16 16:00:46 GMT 52.867813 -2.866287 19,975 185 384 2176
2021-07-16 16:00:43 GMT 52.867813 -2.866287 20,075 185 385 2112
2021-07-16 16:00:41 GMT 52.872070 -2.865753 19,950 185 383 2240
2021-07-16 16:00:38 GMT 52.875916 -2.865219 19,850 185 382 2240
2021-07-16 16:00:35 GMT 52.883015 -2.864293 19,750 185 380 2240
2021-07-16 16:00:32 GMT 52.887451 -2.863693 19,525 185 380 2240
2021-07-16 16:00:30 GMT 52.890884 -2.863235 19,575 185 380 2240
2021-07-16 16:00:28 GMT 52.894501 -2.862778 19,450 185 379 2432
2021-07-16 16:00:25 GMT 52.899261 -2.862167 19,225 185 378 2752
2021-07-16 16:00:22 GMT 52.903824 -2.861625 19,225 185 378 2880
2021-07-16 16:00:19 GMT 52.910934 -2.860718 19,100 185 378 3008
2021-07-16 16:00:16 GMT 52.915192 -2.860184 18,975 185 378 2944
2021-07-16 16:00:13 GMT 52.920536 -2.859506 18,825 185 378 2688
2021-07-16 16:00:11 GMT 52.923157 -2.859192 18,775 185 377 2496
2021-07-16 16:00:09 GMT 52.926079 -2.858878 18,675 185 377 2304
2021-07-16 16:00:07 GMT 52.931396 -2.858200 18,500 185 377 1536
2021-07-16 16:00:04 GMT 52.940277 -2.857073 18,500 186 377 1472
2021-07-16 16:00:01 GMT 52.940277 -2.857073 18,350 189 375 832
2021-07-16 15:59:59 GMT 52.948704 -2.855425 18,400 188 375 960
2021-07-16 15:59:57 GMT 52.948704 -2.855425 18,375 189 375 832
2021-07-16 15:59:54 GMT 52.953682 -2.854248 18,325 190 375 896
2021-07-16 15:59:51 GMT 52.957920 -2.853071 18,275 192 374 960
2021-07-16 15:59:49 GMT 52.961472 -2.852020 18,250 192 374 960
2021-07-16 15:59:47 GMT 52.965740 -2.850560 18,200 193 374 960
2021-07-16 15:59:44 GMT 52.970490 -2.848755 18,175 194 373 1024
2021-07-16 15:59:41 GMT 52.974655 -2.847061 18,125 196 374 1280
2021-07-16 15:59:38 GMT 52.979893 -2.844674 17,925 197 373 1920
2021-07-16 15:59:35 GMT 52.984818 -2.842255 17,900 200 372 1984
2021-07-16 15:59:32 GMT 52.990036 -2.839432 17,800 200 372 1984
2021-07-16 15:59:29 GMT 52.994415 -2.836827 17,700 201 371 1984
2021-07-16 15:59:27 GMT 53.003448 -2.831268 17,650 201 371 1984
2021-07-16 15:59:24 GMT 53.003448 -2.831268 17,575 201 370 1920
2021-07-16 15:59:21 GMT 53.010178 -2.827072 17,475 201 367 1984
2021-07-16 15:59:19 GMT 53.010178 -2.827072 17,425 201 368 1984
2021-07-16 15:59:17 GMT 53.014481 -2.824402 17,325 201 367 1984
2021-07-16 15:59:14 GMT 53.019695 -2.821132 17,150 201 366 2048
2021-07-16 15:59:11 GMT 53.026291 -2.817078 17,075 201 363 2624
2021-07-16 15:59:09 GMT 53.031189 -2.814102 16,875 201 363 2816
2021-07-16 15:59:07 GMT 53.031189 -2.814102 16,800 201 362 2880
2021-07-16 15:59:04 GMT 53.034546 -2.811951 16,750 201 362 2880
2021-07-16 15:59:01 GMT 53.039524 -2.808969 15,975 201 360 2816
2021-07-16 15:58:58 GMT 53.044785 -2.805710 16,450 201 361 2816
2021-07-16 15:58:55 GMT 53.048630 -2.803345 16,400 201 361 2816
2021-07-16 15:58:52 GMT 53.053253 -2.800446 16,250 201 360 2880
2021-07-16 15:58:49 GMT 53.057819 -2.797668 16,125 201 360 3072
2021-07-16 15:58:47 GMT 53.065796 -2.792740 15,825 201 359 3200
2021-07-16 15:58:44 GMT 53.065796 -2.792740 15,750 201 359 3200
2021-07-16 15:58:41 GMT 53.070717 -2.789743 15,550 201 359 3200
2021-07-16 15:58:39 GMT 53.073669 -2.787857 15,575 201 359 3136
2021-07-16 15:58:37 GMT 53.076508 -2.786102 15,475 201 358 3136
2021-07-16 15:58:35 GMT 53.080536 -2.783585 15,300 201 358 3072
2021-07-16 15:58:32 GMT 53.084633 -2.781110 15,225 201 358 3072
2021-07-16 15:58:29 GMT 53.089474 -2.778128 15,000 201 357 3008
2021-07-16 15:58:26 GMT 53.093155 -2.775774 14,625 201 355 2944
2021-07-16 15:58:23 GMT 53.097855 -2.772917 14,625 201 356 3008
2021-07-16 15:58:20 GMT 53.102371 -2.770124 14,650 201 356 2944
2021-07-16 15:58:18 GMT 53.105392 -2.768241 14,575 201 355 2944
2021-07-16 15:58:15 GMT 53.111542 -2.764435 14,275 201 354 2944
2021-07-16 15:58:12 GMT 53.115311 -2.762173 14,200 201 353 3008
2021-07-16 15:58:09 GMT 53.120087 -2.759216 14,075 201 353 3072
2021-07-16 15:58:06 GMT 53.124893 -2.756234 13,850 201 351 3008
2021-07-16 15:58:03 GMT 53.129562 -2.753331 13,750 201 351 3008
2021-07-16 15:58:00 GMT 53.132584 -2.751526 13,650 201 350 2944
2021-07-16 15:57:58 GMT 53.139175 -2.747445 13,375 201 349 2880
2021-07-16 15:57:53 GMT 53.144268 -2.744320 13,200 201 348 3008
2021-07-16 15:57:50 GMT 53.147991 -2.741977 13,175 201 348 3008
2021-07-16 15:57:48 GMT 53.151157 -2.740039 13,050 201 347 3008
2021-07-16 15:57:46 GMT 53.155579 -2.737292 12,850 201 346 3008
2021-07-16 15:57:43 GMT 53.160187 -2.734465 12,750 201 345 3008
2021-07-16 15:57:40 GMT 53.163818 -2.732203 12,625 201 344 3072
2021-07-16 15:57:38 GMT 53.166000 -2.730887 12,525 201 344 3264
2021-07-16 15:57:36 GMT 53.168976 -2.729004 12,350 201 344 3584
2021-07-16 15:57:34 GMT 53.172638 -2.726728 12,175 201 344 3712
2021-07-16 15:57:31 GMT 53.177925 -2.723478 12,000 201 344 3584
2021-07-16 15:57:28 GMT 53.184956 -2.719116 11,875 201 344 3456
2021-07-16 15:57:26 GMT 53.184956 -2.719116 11,725 201 344 3392
2021-07-16 15:57:23 GMT 53.188820 -2.716774 11,300 201 344 3776
2021-07-16 15:57:20 GMT 53.193611 -2.713785 11,000 201 344 3776
2021-07-16 15:57:18 GMT 53.195988 -2.712331 11,275 201 344 3712
2021-07-16 15:57:16 GMT 53.199829 -2.710013 10,800 201 345 3648
2021-07-16 15:57:13 GMT 53.204319 -2.707241 10,800 201 345 3648
2021-07-16 15:57:10 GMT 53.209076 -2.704285 10,800 201 345 3648
2021-07-16 15:57:08 GMT 53.210770 -2.703265 10,700 201 345 3584
2021-07-16 15:57:06 GMT 53.219330 -2.698085 10,500 201 344 3456
2021-07-16 15:57:03 GMT 53.219330 -2.698085 10,325 200 344 3456
2021-07-16 15:57:00 GMT 53.224010 -2.695286 10,200 200 344 3648
2021-07-16 15:56:58 GMT 53.226200 -2.693993 10,075 203 343 3392
2021-07-16 15:56:55 GMT 53.230854 -2.691166 9,850 203 343 3392
2021-07-16 15:56:52 GMT 53.240158 -2.684588 9,650 205 343 3136
2021-07-16 15:56:49 GMT 53.244278 -2.681213 9,525 207 341 2944
2021-07-16 15:56:46 GMT 53.244278 -2.681213 9,350 210 339 3136
2021-07-16 15:56:43 GMT 53.247753 -2.678079 9,325 211 338 3200
2021-07-16 15:56:40 GMT 53.251465 -2.674465 9,125 213 337 3392
2021-07-16 15:56:38 GMT 53.254166 -2.671640 8,950 215 337 3328
2021-07-16 15:56:36 GMT 53.258507 -2.666770 8,825 217 336 3328
2021-07-16 15:56:33 GMT 53.261856 -2.662537 8,050 219 335 3264
2021-07-16 15:56:30 GMT 53.267910 -2.654087 8,525 222 334 3072
2021-07-16 15:56:28 GMT 53.267910 -2.654087 8,350 224 332 2880
2021-07-16 15:56:25 GMT 53.274307 -2.643781 8,250 225 331 2944
2021-07-16 15:56:22 GMT 53.276478 -2.640031 8,100 226 329 2944
2021-07-16 15:56:19 GMT 53.276478 -2.640031 8,050 228 328 3008
2021-07-16 15:56:17 GMT 53.278572 -2.636315 7,975 229 327 3072
2021-07-16 15:56:14 GMT 53.282295 -2.628964 7,725 233 325 3264
2021-07-16 15:56:11 GMT 53.284576 -2.624198 7,525 236 324 3328
2021-07-16 15:56:08 GMT 53.287460 -2.617170 7,500 237 323 3264
2021-07-16 15:56:05 GMT 53.289509 -2.611757 7,200 242 320 3200
2021-07-16 15:56:02 GMT 53.292023 -2.604002 7,100 244 319 3200
2021-07-16 15:55:59 GMT 53.293655 -2.598590 6,950 247 318 3328
2021-07-16 15:55:57 GMT 53.294819 -2.593985 6,875 249 318 3392
2021-07-16 15:55:54 GMT 53.296398 -2.587199 6,625 252 315 3456
2021-07-16 15:55:51 GMT 53.297844 -2.580010 6,125 253 313 3520
2021-07-16 15:55:48 GMT 53.299194 -2.572901 6,325 253 314 3584
2021-07-16 15:55:45 GMT 53.300495 -2.566035 6,025 253 313 3584
2021-07-16 15:55:42 GMT 53.301956 -2.558480 5,900 253 312 3584
2021-07-16 15:55:39 GMT 53.303192 -2.551810 5,775 253 312 3712
2021-07-16 15:55:37 GMT 53.303787 -2.548750 5,650 253 311 3968
2021-07-16 15:55:35 GMT 53.305115 -2.541609 5,475 254 311 4224
2021-07-16 15:55:32 GMT 53.305805 -2.537842 5,375 254 311 4224
2021-07-16 15:55:29 GMT 53.307495 -2.528503 5,100 254 312 3712
2021-07-16 15:55:27 GMT 53.307945 -2.525967 5,000 254 311 3648
2021-07-16 15:55:25 GMT 53.309155 -2.519343 4,800 254 310 3520
2021-07-16 15:55:22 GMT 53.311661 -2.505118 4,600 254 306 2368
2021-07-16 15:55:19 GMT 53.311661 -2.505118 4,550 254 308 2880
2021-07-16 15:55:17 GMT 53.312531 -2.500096 4,350 254 305 2112
2021-07-16 15:55:14 GMT 53.313580 -2.494300 4,350 254 301 1600
2021-07-16 15:55:11 GMT 53.314590 -2.488639 4,250 254 296 1664
2021-07-16 15:55:08 GMT 53.315826 -2.481576 4,225 254 293 1600
2021-07-16 15:55:06 GMT 53.316467 -2.477966 4,125 256 288 1472
2021-07-16 15:55:03 GMT 53.317581 -2.471197 4,075 257 284 1408
2021-07-16 15:55:00 GMT 53.318436 -2.464783 4,000 261 277 1344
2021-07-16 15:54:57 GMT 53.319214 -2.457799 3,925 263 274 1344
2021-07-16 15:54:54 GMT 53.319717 -2.451913 3,750 270 257 1216
2021-07-16 15:54:51 GMT 53.320187 -2.439934 3,800 268 262 1280
2021-07-16 15:54:48 GMT 53.320187 -2.439934 3,750 271 255 1216
2021-07-16 15:54:46 GMT 53.320175 -2.434727 3,675 273 250 1088
2021-07-16 15:54:43 GMT 53.320095 -2.430725 3,625 274 244 1024
2021-07-16 15:54:40 GMT 53.319908 -2.424020 3,600 274 241 1152
2021-07-16 15:54:36 GMT 53.319672 -2.416286 3,475 274 233 1664
2021-07-16 15:54:33 GMT 53.319538 -2.411903 3,400 273 229 1920
2021-07-16 15:54:30 GMT 53.319351 -2.406084 3,350 274 227 2176
2021-07-16 15:54:26 GMT 53.319118 -2.399139 3,125 273 223 2752
2021-07-16 15:54:23 GMT 53.318985 -2.393921 2,975 274 222 2560
2021-07-16 15:54:20 GMT 53.318790 -2.388799 2,925 274 220 2496
2021-07-16 15:54:16 GMT 53.318233 -2.377328 2,650 276 214 1984
2021-07-16 15:54:13 GMT 53.317886 -2.371791 2,625 276 213 2048
2021-07-16 15:54:10 GMT 53.317886 -2.371791 2,550 275 211 2240
2021-07-16 15:54:06 GMT 53.317612 -2.365278 2,425 272 210 2688
2021-07-16 15:54:03 GMT 53.317677 -2.361010 2,175 261 210 2496
2021-07-16 15:54:00 GMT 53.318233 -2.354709 2,100 256 210 1856
2021-07-16 15:53:57 GMT 53.318886 -2.350913 2,025 249 208 1792
2021-07-16 15:53:55 GMT 53.319630 -2.347843 1,975 244 207 1728
2021-07-16 15:53:54 GMT 53.320515 -2.344854 1,900 239 206 1600
2021-07-16 15:53:52 GMT 53.320980 -2.343481 1,875 237 205 1472
2021-07-16 15:53:51 GMT 53.322098 -2.340716 1,825 234 203 1344
2021-07-16 15:53:48 GMT 53.324341 -2.335772 1,775 232 200 1152
2021-07-16 15:53:46 GMT 53.324341 -2.335772 1,750 232 199 960
2021-07-16 15:53:45 GMT 53.324936 -2.334516 1,750 231 196 832
2021-07-16 15:53:44 GMT 53.326218 -2.331848 1,700 231 193 576
2021-07-16 15:53:41 GMT 53.327316 -2.329572 1,700 231 190 576
2021-07-16 15:53:39 GMT 53.328476 -2.327324 1,675 231 186 704
2021-07-16 15:53:38 GMT 53.328964 -2.326277 1,650 231 184 896
2021-07-16 15:53:36 GMT 53.329872 -2.324416 1,625 232 181 1280
2021-07-16 15:53:34 GMT 53.331734 -2.320619 1,525 232 177 1600
2021-07-16 15:53:31 GMT 53.332489 -2.318978 1,500 232 175 1600
2021-07-16 15:53:30 GMT 53.332993 -2.317880 1,450 232 172 1792
2021-07-16 15:53:29 GMT 53.334106 -2.315611 1,400 232 170 2048
2021-07-16 15:53:27 GMT 53.334549 -2.314662 1,350 232 170 2176
2021-07-16 15:53:26 GMT 53.335052 -2.313642 1,325 232 169 2304
2021-07-16 15:53:24 GMT 53.336060 -2.311445 1,225 232 168 2496
2021-07-16 15:53:22 GMT 53.336853 -2.309795 1,175 232 168 2624
2021-07-16 15:53:21 GMT 53.337551 -2.308260 1,100 232 167 2752
2021-07-16 15:53:19 GMT 53.338482 -2.306321 1,000 232 167 2816
2021-07-16 15:53:18 GMT 53.338997 -2.305352 950 232 167 2816
2021-07-16 15:53:17 GMT 53.340904 -2.301313 775 232 167 2752
2021-07-16 15:53:14 GMT 53.341976 -2.299051 725 232 166 2496
2021-07-16 15:53:11 GMT 53.341976 -2.299051 625 232 165 2496
2021-07-16 15:53:08 GMT 53.344025 -2.294769 475 232 165 2752
2021-07-16 15:53:05 GMT 53.344723 -2.293396 425 232 164 2944
2021-07-16 15:53:00 GMT 53.347702 -2.287257 75 231 169 2880
2021-07-16 15:52:54 GMT 53.349983 -2.282571 -100 231 169 2240
2021-07-16 15:52:49 GMT 53.352905 -2.276681 -175 231 164 576
2021-07-16 15:52:44 GMT 53.355011 -2.272365 -150 231 142 -64
2021-07-16 15:52:40 GMT 53.358173 -2.265849 -150 232 98 64
2021-07-16 15:52:35 GMT 53.358173 -2.265849 -150 232 102 0
2021-07-16 15:52:31 GMT 53.359234 -2.263635 0 230 86
2021-07-16 15:52:25 GMT 53.360687 -2.260639 0 230 54
2021-07-16 15:52:20 GMT 53.361305 -2.259346 0 230 35
2021-07-16 15:52:15 GMT 53.361740 -2.258416 0 233 18
2021-07-16 15:52:10 GMT 53.361958 -2.257965 0 225 15
2021-07-16 15:52:07 GMT 53.362129 -2.257710 0 202 13
2021-07-16 15:52:04 GMT 53.362267 -2.257632 0 182 12
2021-07-16 15:51:59 GMT 53.362518 -2.257651 0 163 11
2021-07-16 15:51:56 GMT 53.362633 -2.257749 0 112 10
2021-07-16 15:51:50 GMT 53.362808 -2.258094 0 112 10
2021-07-16 15:51:42 GMT 53.362911 -2.258761 0 84 11
2021-07-16 15:51:37 GMT 53.362877 -2.259145 0 67 11
2021-07-16 15:51:29 GMT 53.362713 -2.259730 0 78 10
2021-07-16 15:51:23 GMT 53.362690 -2.260154 0 98 10
2021-07-16 15:51:14 GMT 53.362713 -2.260801 0 70 9
2021-07-16 15:51:07 GMT 53.362587 -2.261245 0 50 8
2021-07-16 15:51:04 GMT 53.362514 -2.261386 0 50 8
2021-07-16 15:50:44 GMT 53.362049 -2.262275 0 36 10
2021-07-16 15:50:43 GMT 53.362026 -2.262320 0 36 10
2021-07-16 15:50:38 GMT 53.361828 -2.262558 0 36 11
2021-07-16 15:50:29 GMT 53.361469 -2.263083 0 50 13
2021-07-16 15:50:23 GMT 53.361271 -2.263517 0 50 14
2021-07-16 15:50:14 GMT 53.360897 -2.264254 0 50 13
2021-07-16 15:50:03 GMT 53.360516 -2.265067 0 50 13
2021-07-16 15:49:59 GMT 53.360367 -2.265381 0 50 13
2021-07-16 15:49:54 GMT 53.360153 -2.265829 0 50 13
2021-07-16 15:49:48 GMT 53.359955 -2.266233 0 50 13
2021-07-16 15:49:43 GMT 53.359779 -2.266597 0 50 13
2021-07-16 15:49:40 GMT 53.359657 -2.266852 0 50 13
2021-07-16 15:49:33 GMT 53.359421 -2.267364 0 53 13
2021-07-16 15:49:30 GMT 53.359303 -2.267637 0 53 14
2021-07-16 15:49:23 GMT 53.359074 -2.268186 0 56 13
2021-07-16 15:49:19 GMT 53.358921 -2.268556 0 53 12
2021-07-16 15:49:12 GMT 53.358711 -2.269020 0 53 12
2021-07-16 15:49:08 GMT 53.358593 -2.269265 0 53 12
2021-07-16 15:49:03 GMT 53.358433 -2.269658 0 59 11
2021-07-16 15:48:59 GMT 53.358341 -2.269893 0 59 11
2021-07-16 15:48:53 GMT 53.358173 -2.270333 0 59 11
2021-07-16 15:48:49 GMT 53.358093 -2.270595 0 56 11
2021-07-16 15:48:43 GMT 53.357929 -2.270979 0 50 10
2021-07-16 15:48:40 GMT 53.357826 -2.271188 0 50 10
2021-07-16 15:48:32 GMT 53.357632 -2.271620 0 56 9
2021-07-16 15:48:23 GMT 53.357475 -2.272171 0 101 9
2021-07-16 15:48:17 GMT 53.357559 -2.272574 0 132 9
2021-07-16 15:48:12 GMT 53.357674 -2.272776 0 143 9
2021-07-16 15:48:02 GMT 53.358047 -2.273100 0 168 9
2021-07-16 15:47:59 GMT 53.358173 -2.273160 0 174 9
2021-07-16 15:47:52 GMT 53.358410 -2.273180 0 180 7
2021-07-16 15:47:48 GMT 53.358536 -2.273180 0 177 5
2021-07-16 15:47:40 GMT 53.358665 -2.273180 0 177 0
2021-07-16 15:47:35 GMT 53.358696 -2.273189 0 177 0
2021-07-16 15:47:20 GMT 53.358700 -2.273180 0 177 0
2021-07-16 15:47:10 GMT 53.358707 -2.273189 0 177 0
2021-07-16 15:47:05 GMT 53.358700 -2.273180 0 177 0
2021-07-16 15:46:59 GMT 53.358707 -2.273189 0 177 0
2021-07-16 15:46:34 GMT 53.358700 -2.273180 0 177 0
2021-07-16 15:46:29 GMT 53.358707 -2.273189 0 177 0
2021-07-16 15:46:24 GMT 53.358700 -2.273180 0 177 0
2021-07-16 15:46:19 GMT 53.358707 -2.273189 0 177 0
2021-07-16 15:46:05 GMT 53.358700 -2.273180 0 177 0
2021-07-16 15:45:59 GMT 53.358707 -2.273189 0 177 0
2021-07-16 15:45:54 GMT 53.358711 -2.273180 0 177 0
2021-07-16 15:45:44 GMT 53.358707 -2.273189 0 177 0
2021-07-16 15:45:34 GMT 53.358700 -2.273180 0 177 0
2021-07-16 15:45:25 GMT 53.358707 -2.273169 0 177 0
2021-07-16 15:45:00 GMT 53.358700 -2.273180 0 177 0
2021-07-16 15:44:55 GMT 53.358711 -2.273180 0 177 0
2021-07-16 15:44:50 GMT 53.358707 -2.273169 0 177 2
2021-07-16 15:44:47 GMT 53.358734 -2.273180 0 177 3
2021-07-16 15:44:40 GMT 53.358799 -2.273189 0 177 3
2021-07-16 15:44:30 GMT 53.358837 -2.273180 0 177 0

Making use of Plane Finder data

You are free to use the raw flight data, aircraft information and images provided in this report for your own purposes provided the data is correctly attributed to Plane Finder. We ask that you please credit Plane Finder and link to planefinder.net in close proximity to the content.

Optionally one of the following logos (no smaller then 150x24px) can be used and must link to planefinder.net

Embedding the Plane Finder map

You are welcome to embed the Plane Finder playback map on your website to offer visitors a more interactive experience. We suggest using the following HTML code:

<iframe src="//planefinder.net/data/report/FR3232-EI-DLH-7700-squawk-2021-07-16/map" width="800" height="600" seamless="seamless"></iframe>

Where our data comes from

Plane Finder has a global network of data feeds and antenna radars that receive data broadcast directly from aircraft. The primary technologies used are ADS-B and MLAT. We also show feeds from the FAA and a FLARM glider feed.

Click here to find out more about the Plane Finder network.

How we collect our data